Time,TemperatureF,DewpointF,PressureIn,WindDirection,WindDirectionDegrees,WindSpeedMPH,WindSpeedGustMPH,Humidity,HourlyPrecipIn,Conditions,Clouds,dailyrainin,SoftwareType,DateUTC
2013-01-24 00:00:00,68.0,64.0,29.95,North,9,1.0,-999.0,87,0.00,,,0.00,PyWeather,2013-01-24 10:00:00,
2013-01-24 00:01:00,67.8,63.1,29.95,North,9,0.0,-999.0,85,0.00,,,0.00,PyWeather,2013-01-24 10:01:00,
2013-01-24 00:02:00,68.1,63.8,29.95,North,5,1.0,-999.0,86,0.00,,,0.00,PyWeather,2013-01-24 10:02:00,
2013-01-24 00:03:00,68.1,63.8,29.95,North,9,2.0,-999.0,86,0.00,,,0.00,PyWeather,2013-01-24 10:03:00,
2013-01-24 00:06:00,67.7,63.0,29.95,North,5,0.0,-999.0,85,0.00,,,0.00,PyWeather,2013-01-24 10:06:00,
2013-01-24 00:07:00,68.3,64.0,29.94,North,9,1.0,-999.0,86,0.00,,,0.00,PyWeather,2013-01-24 10:07:00,
2013-01-24 00:11:00,67.8,63.5,29.95,North,5,1.0,-999.0,86,0.00,,,0.00,PyWeather,2013-01-24 10:11:00,
2013-01-24 00:12:00,68.0,63.3,29.94,North,5,1.0,-999.0,85,0.00,,,0.00,PyWeather,2013-01-24 10:12:00,
2013-01-24 00:14:00,67.9,63.6,29.94,North,5,0.0,-999.0,86,0.00,,,0.00,PyWeather,2013-01-24 10:14:00,
2013-01-24 00:15:00,67.8,63.5,29.94,North,5,0.0,-999.0,86,0.00,,,0.00,PyWeather,2013-01-24 10:15:00,
2013-01-24 00:16:00,67.8,63.5,29.95,North,9,0.0,-999.0,86,0.00,,,0.00,PyWeather,2013-01-24 10:16:00,
2013-01-24 00:17:00,68.1,63.8,29.95,North,9,2.0,-999.0,86,0.00,,,0.00,PyWeather,2013-01-24 10:17:00,
2013-01-24 00:18:00,67.8,63.5,29.95,North,5,0.0,-999.0,86,0.00,,,0.00,PyWeather,2013-01-24 10:18:00,
2013-01-24 00:19:00,67.8,63.5,29.95,North,5,0.0,-999.0,86,0.00,,,0.00,PyWeather,2013-01-24 10:19:00,
2013-01-24 00:20:00,67.8,63.5,29.94,North,5,0.0,-999.0,86,0.00,,,0.00,PyWeather,2013-01-24 10:20:00,
2013-01-24 00:21:00,67.8,63.5,29.94,North,5,0.0,-999.0,86,0.00,,,0.00,PyWeather,2013-01-24 10:21:00,
2013-01-24 00:22:00,68.3,64.0,29.95,North,5,1.0,-999.0,86,0.00,,,0.00,PyWeather,2013-01-24 10:22:00,
2013-01-24 00:23:00,67.8,63.5,29.94,North,9,0.0,-999.0,86,0.00,,,0.00,PyWeather,2013-01-24 10:23:00,
2013-01-24 00:24:00,67.9,63.6,29.94,North,5,0.0,-999.0,86,0.00,,,0.00,PyWeather,2013-01-24 10:24:00,
2013-01-24 00:25:00,67.9,63.6,29.94,North,9,1.0,-999.0,86,0.00,,,0.00,PyWeather,2013-01-24 10:25:00,
2013-01-24 00:26:00,67.9,63.6,29.94,North,9,1.0,-999.0,86,0.00,,,0.00,PyWeather,2013-01-24 10:26:00,
2013-01-24 00:27:00,67.9,63.2,29.94,North,9,0.0,-999.0,85,0.00,,,0.00,PyWeather,2013-01-24 10:27:00,
2013-01-24 00:29:00,68.1,64.1,29.94,North,5,1.0,-999.0,87,0.00,,,0.00,PyWeather,2013-01-24 10:29:00,
2013-01-24 00:30:00,68.1,64.1,29.94,North,9,1.0,-999.0,87,0.00,,,0.00,PyWeather,2013-01-24 10:30:00,
2013-01-24 00:31:00,68.1,63.8,29.94,North,5,1.0,-999.0,86,0.00,,,0.00,PyWeather,2013-01-24 10:31:00,
2013-01-24 00:32:00,67.8,63.5,29.95,North,9,0.0,-999.0,86,0.00,,,0.00,PyWeather,2013-01-24 10:32:00,
2013-01-24 00:38:00,67.8,63.5,29.94,North,9,0.0,-999.0,86,0.00,,,0.00,PyWeather,2013-01-24 10:38:00,
2013-01-24 00:43:00,68.1,64.1,29.94,North,9,1.0,-999.0,87,0.00,,,0.00,PyWeather,2013-01-24 10:43:00,
2013-01-24 00:48:00,68.2,63.9,29.94,North,5,2.0,-999.0,86,0.00,,,0.00,PyWeather,2013-01-24 10:48:00,
2013-01-24 00:53:00,68.1,63.8,29.94,North,9,1.0,-999.0,86,0.00,,,0.00,PyWeather,2013-01-24 10:53:00,
2013-01-24 00:58:00,67.9,63.6,29.94,North,9,1.0,-999.0,86,0.00,,,0.00,PyWeather,2013-01-24 10:58:00,
2013-01-24 01:04:00,67.8,63.5,29.94,North,9,1.0,-999.0,86,0.00,,,0.00,PyWeather,2013-01-24 11:04:00,
2013-01-24 01:09:00,67.5,62.9,29.94,North,9,1.0,-999.0,85,0.00,,,0.00,PyWeather,2013-01-24 11:09:00,
2013-01-24 01:14:00,67.4,62.8,29.94,North,5,2.0,-999.0,85,0.00,,,0.00,PyWeather,2013-01-24 11:14:00,
2013-01-24 01:16:00,67.7,63.4,29.93,North,5,1.0,-999.0,86,0.00,,,0.00,PyWeather,2013-01-24 11:16:00,
2013-01-24 01:17:00,67.7,63.4,29.93,North,5,1.0,-999.0,86,0.00,,,0.00,PyWeather,2013-01-24 11:17:00,
2013-01-24 01:18:00,67.6,63.3,29.94,North,9,1.0,-999.0,86,0.00,,,0.00,PyWeather,2013-01-24 11:18:00,
2013-01-24 01:19:00,67.5,62.9,29.94,North,5,1.0,-999.0,85,0.00,,,0.00,PyWeather,2013-01-24 11:19:00,
2013-01-24 01:20:00,67.4,63.1,29.94,North,5,2.0,-999.0,86,0.00,,,0.00,PyWeather,2013-01-24 11:20:00,
2013-01-24 01:21:00,67.0,62.0,29.94,North,5,0.0,-999.0,84,0.00,,,0.00,PyWeather,2013-01-24 11:21:00,
2013-01-24 01:22:00,66.8,61.8,29.94,North,5,0.0,-999.0,84,0.00,,,0.00,PyWeather,2013-01-24 11:22:00,
2013-01-24 01:23:00,66.5,61.9,29.94,North,9,0.0,-999.0,85,0.00,,,0.00,PyWeather,2013-01-24 11:23:00,
2013-01-24 01:24:00,66.4,61.8,29.94,North,9,0.0,-999.0,85,0.00,,,0.00,PyWeather,2013-01-24 11:24:00,
2013-01-24 01:25:00,67.6,63.3,29.94,North,5,2.0,-999.0,86,0.00,,,0.00,PyWeather,2013-01-24 11:25:00,
2013-01-24 01:28:00,66.3,62.0,29.93,North,9,1.0,-999.0,86,0.00,,,0.00,PyWeather,2013-01-24 11:28:00,
2013-01-24 01:31:00,67.6,63.3,29.94,North,5,1.0,-999.0,86,0.00,,,0.00,PyWeather,2013-01-24 11:31:00,
2013-01-24 01:32:00,66.4,62.4,29.93,North,9,2.0,-999.0,87,0.00,,,0.00,PyWeather,2013-01-24 11:32:00,
2013-01-24 01:33:00,66.3,62.0,29.93,North,9,2.0,-999.0,86,0.00,,,0.00,PyWeather,2013-01-24 11:33:00,
2013-01-24 01:36:00,66.7,61.7,29.94,North,5,0.0,-999.0,84,0.00,,,0.00,PyWeather,2013-01-24 11:36:00,
2013-01-24 01:37:00,66.6,62.6,29.93,North,5,2.0,-999.0,87,0.00,,,0.00,PyWeather,2013-01-24 11:37:00,
2013-01-24 01:39:00,66.8,62.8,29.93,North,5,2.0,-999.0,87,0.00,,,0.00,PyWeather,2013-01-24 11:39:00,
2013-01-24 01:40:00,66.7,62.7,29.93,North,5,3.0,-999.0,87,0.00,,,0.00,PyWeather,2013-01-24 11:40:00,
2013-01-24 01:41:00,66.3,62.0,29.93,North,9,1.0,-999.0,86,0.00,,,0.00,PyWeather,2013-01-24 11:41:00,
2013-01-24 01:43:00,66.5,62.2,29.93,North,5,3.0,-999.0,86,0.00,,,0.00,PyWeather,2013-01-24 11:43:00,
2013-01-24 01:44:00,66.4,62.1,29.93,North,9,3.0,-999.0,86,0.00,,,0.00,PyWeather,2013-01-24 11:44:00,
2013-01-24 01:45:00,66.3,62.0,29.93,North,9,3.0,-999.0,86,0.00,,,0.00,PyWeather,2013-01-24 11:45:00,
2013-01-24 01:46:00,66.3,62.0,29.93,North,5,2.0,-999.0,86,0.00,,,0.00,PyWeather,2013-01-24 11:46:00,
2013-01-24 01:48:00,66.4,62.4,29.93,North,5,3.0,-999.0,87,0.00,,,0.00,PyWeather,2013-01-24 11:48:00,
2013-01-24 01:49:00,66.5,62.5,29.93,North,5,2.0,-999.0,87,0.00,,,0.00,PyWeather,2013-01-24 11:49:00,
2013-01-24 01:52:00,66.7,62.7,29.93,North,5,2.0,-999.0,87,0.00,,,0.00,PyWeather,2013-01-24 11:52:00,
2013-01-24 01:53:00,66.5,62.5,29.93,North,9,2.0,-999.0,87,0.00,,,0.00,PyWeather,2013-01-24 11:53:00,
2013-01-24 01:54:00,66.5,62.5,29.93,North,5,2.0,-999.0,87,0.00,,,0.00,PyWeather,2013-01-24 11:54:00,
2013-01-24 01:55:00,66.5,62.5,29.93,North,5,2.0,-999.0,87,0.00,,,0.00,PyWeather,2013-01-24 11:55:00,
2013-01-24 01:56:00,66.5,62.5,29.93,North,5,2.0,-999.0,87,0.00,,,0.00,PyWeather,2013-01-24 11:56:00,
2013-01-24 01:57:00,66.5,62.2,29.93,North,9,3.0,-999.0,86,0.00,,,0.00,PyWeather,2013-01-24 11:57:00,
2013-01-24 02:02:00,66.4,62.4,29.93,North,9,3.0,-999.0,87,0.00,,,0.00,PyWeather,2013-01-24 12:02:00,
2013-01-24 02:07:00,66.5,62.5,29.93,North,5,2.0,-999.0,87,0.00,,,0.00,PyWeather,2013-01-24 12:07:00,
2013-01-24 02:13:00,66.4,62.4,29.93,North,5,2.0,-999.0,87,0.00,,,0.00,PyWeather,2013-01-24 12:13:00,
2013-01-24 02:18:00,66.7,63.0,29.93,North,9,3.0,-999.0,88,0.00,,,0.00,PyWeather,2013-01-24 12:18:00,
2013-01-24 02:19:00,66.3,62.6,29.93,North,5,2.0,-999.0,88,0.00,,,0.00,PyWeather,2013-01-24 12:19:00,
2013-01-24 02:20:00,66.3,62.6,29.93,North,5,2.0,-999.0,88,0.00,,,0.00,PyWeather,2013-01-24 12:20:00,
2013-01-24 02:21:00,66.3,62.3,29.93,North,5,2.0,-999.0,87,0.00,,,0.00,PyWeather,2013-01-24 12:21:00,
2013-01-24 02:23:00,66.7,62.7,29.93,North,5,3.0,-999.0,87,0.00,,,0.00,PyWeather,2013-01-24 12:23:00,
2013-01-24 02:24:00,66.0,61.7,29.93,North,9,2.0,-999.0,86,0.00,,,0.00,PyWeather,2013-01-24 12:24:00,
2013-01-24 02:26:00,65.7,61.4,29.93,North,9,2.0,-999.0,86,0.00,,,0.00,PyWeather,2013-01-24 12:26:00,
2013-01-24 02:28:00,66.3,62.3,29.93,North,9,3.0,-999.0,87,0.00,,,0.00,PyWeather,2013-01-24 12:28:00,
2013-01-24 02:29:00,65.6,61.9,29.92,North,5,2.0,-999.0,88,0.00,,,0.00,PyWeather,2013-01-24 12:29:00,
2013-01-24 02:32:00,65.8,62.5,29.92,North,5,2.0,-999.0,89,0.00,,,0.00,PyWeather,2013-01-24 12:32:00,
2013-01-24 02:33:00,66.3,62.6,29.93,North,5,2.0,-999.0,88,0.00,,,0.00,PyWeather,2013-01-24 12:33:00,
2013-01-24 02:34:00,65.7,61.7,29.92,North,5,2.0,-999.0,87,0.00,,,0.00,PyWeather,2013-01-24 12:34:00,
2013-01-24 02:35:00,65.6,61.6,29.92,North,9,2.0,-999.0,87,0.00,,,0.00,PyWeather,2013-01-24 12:35:00,
2013-01-24 02:37:00,65.3,61.0,29.92,North,5,2.0,-999.0,86,0.00,,,0.00,PyWeather,2013-01-24 12:37:00,
2013-01-24 02:38:00,65.9,61.6,29.93,North,5,2.0,-999.0,86,0.00,,,0.00,PyWeather,2013-01-24 12:38:00,
2013-01-24 02:39:00,65.1,61.1,29.92,North,9,2.0,-999.0,87,0.00,,,0.00,PyWeather,2013-01-24 12:39:00,
2013-01-24 02:40:00,65.0,61.0,29.92,North,5,2.0,-999.0,87,0.00,,,0.00,PyWeather,2013-01-24 12:40:00,
2013-01-24 02:44:00,65.7,62.0,29.93,North,5,2.0,-999.0,88,0.00,,,0.00,PyWeather,2013-01-24 12:44:00,
2013-01-24 02:49:00,65.5,61.2,29.92,North,5,2.0,-999.0,86,0.00,,,0.00,PyWeather,2013-01-24 12:49:00,
2013-01-24 02:54:00,64.9,60.9,29.92,North,5,2.0,-999.0,87,0.00,,,0.00,PyWeather,2013-01-24 12:54:00,
2013-01-24 02:59:00,64.9,61.3,29.92,North,5,2.0,-999.0,88,0.00,,,0.00,PyWeather,2013-01-24 12:59:00,
2013-01-24 03:04:00,64.9,61.3,29.92,North,9,2.0,-999.0,88,0.00,,,0.00,PyWeather,2013-01-24 13:04:00,
2013-01-24 03:09:00,64.9,61.3,29.92,North,5,3.0,-999.0,88,0.00,,,0.00,PyWeather,2013-01-24 13:09:00,
2013-01-24 03:12:00,64.0,60.4,29.92,North,9,2.0,-999.0,88,0.00,,,0.00,PyWeather,2013-01-24 13:12:00,
2013-01-24 03:13:00,64.0,60.0,29.92,North,9,2.0,-999.0,87,0.00,,,0.00,PyWeather,2013-01-24 13:13:00,
2013-01-24 03:14:00,64.6,60.6,29.92,North,9,2.0,-999.0,87,0.00,,,0.00,PyWeather,2013-01-24 13:14:00,
2013-01-24 03:15:00,63.9,60.3,29.92,North,9,2.0,-999.0,88,0.00,,,0.00,PyWeather,2013-01-24 13:15:00,
2013-01-24 03:16:00,63.8,60.2,29.92,North,5,2.0,-999.0,88,0.00,,,0.00,PyWeather,2013-01-24 13:16:00,
2013-01-24 03:17:00,63.9,60.6,29.92,North,5,2.0,-999.0,89,0.00,,,0.00,PyWeather,2013-01-24 13:17:00,
2013-01-24 03:19:00,64.3,60.7,29.92,North,9,2.0,-999.0,88,0.00,,,0.00,PyWeather,2013-01-24 13:19:00,
2013-01-24 03:22:00,64.1,60.5,29.92,North,9,2.0,-999.0,88,0.00,,,0.00,PyWeather,2013-01-24 13:22:00,
2013-01-24 03:24:00,64.1,60.5,29.92,North,5,2.0,-999.0,88,0.00,,,0.00,PyWeather,2013-01-24 13:24:00,
2013-01-24 03:25:00,64.2,60.6,29.92,North,5,3.0,-999.0,88,0.00,,,0.00,PyWeather,2013-01-24 13:25:00,
2013-01-24 03:26:00,64.3,60.7,29.92,North,9,3.0,-999.0,88,0.00,,,0.00,PyWeather,2013-01-24 13:26:00,
2013-01-24 03:27:00,64.2,60.6,29.92,North,5,3.0,-999.0,88,0.00,,,0.00,PyWeather,2013-01-24 13:27:00,
2013-01-24 03:28:00,64.2,60.6,29.92,North,5,3.0,-999.0,88,0.00,,,0.00,PyWeather,2013-01-24 13:28:00,
2013-01-24 03:29:00,63.8,60.2,29.92,North,5,2.0,-999.0,88,0.00,,,0.00,PyWeather,2013-01-24 13:29:00,
2013-01-24 03:32:00,64.3,61.0,29.92,North,5,3.0,-999.0,89,0.00,,,0.00,PyWeather,2013-01-24 13:32:00,
2013-01-24 03:34:00,64.1,60.8,29.92,North,5,2.0,-999.0,89,0.00,,,0.00,PyWeather,2013-01-24 13:34:00,
2013-01-24 03:36:00,64.3,60.7,29.92,North,5,2.0,-999.0,88,0.00,,,0.00,PyWeather,2013-01-24 13:36:00,
2013-01-24 03:37:00,64.3,60.7,29.92,North,9,2.0,-999.0,88,0.00,,,0.00,PyWeather,2013-01-24 13:37:00,
2013-01-24 03:38:00,64.3,61.0,29.92,North,9,2.0,-999.0,89,0.00,,,0.00,PyWeather,2013-01-24 13:38:00,
2013-01-24 03:39:00,64.3,60.7,29.92,North,5,3.0,-999.0,88,0.00,,,0.00,PyWeather,2013-01-24 13:39:00,
2013-01-24 03:41:00,64.4,61.1,29.92,North,5,2.0,-999.0,89,0.00,,,0.00,PyWeather,2013-01-24 13:41:00,
2013-01-24 03:42:00,64.4,61.1,29.92,North,5,2.0,-999.0,89,0.00,,,0.00,PyWeather,2013-01-24 13:42:00,
2013-01-24 03:44:00,64.2,60.9,29.92,North,5,3.0,-999.0,89,0.00,,,0.00,PyWeather,2013-01-24 13:44:00,
2013-01-24 03:46:00,64.8,61.5,29.92,North,5,2.0,-999.0,89,0.00,,,0.00,PyWeather,2013-01-24 13:46:00,
2013-01-24 03:48:00,64.8,61.5,29.92,North,9,2.0,-999.0,89,0.00,,,0.00,PyWeather,2013-01-24 13:48:00,
2013-01-24 03:49:00,64.3,60.7,29.92,North,5,3.0,-999.0,88,0.00,,,0.00,PyWeather,2013-01-24 13:49:00,
2013-01-24 03:50:00,64.9,61.9,29.92,North,9,2.0,-999.0,90,0.00,,,0.00,PyWeather,2013-01-24 13:50:00,
2013-01-24 03:51:00,65.1,62.1,29.92,North,5,2.0,-999.0,90,0.00,,,0.00,PyWeather,2013-01-24 13:51:00,
2013-01-24 03:53:00,65.3,62.0,29.92,North,5,2.0,-999.0,89,0.00,,,0.00,PyWeather,2013-01-24 13:53:00,
2013-01-24 03:54:00,64.4,61.1,29.92,North,5,2.0,-999.0,89,0.00,,,0.00,PyWeather,2013-01-24 13:54:00,
2013-01-24 03:55:00,65.3,62.0,29.92,North,5,2.0,-999.0,89,0.00,,,0.00,PyWeather,2013-01-24 13:55:00,
2013-01-24 03:56:00,65.3,62.0,29.92,North,9,2.0,-999.0,89,0.00,,,0.00,PyWeather,2013-01-24 13:56:00,
2013-01-24 03:57:00,65.3,62.0,29.92,North,9,2.0,-999.0,89,0.00,,,0.00,PyWeather,2013-01-24 13:57:00,
2013-01-24 03:58:00,65.4,62.1,29.92,North,5,1.0,-999.0,89,0.00,,,0.00,PyWeather,2013-01-24 13:58:00,
2013-01-24 03:59:00,64.8,61.5,29.92,North,5,2.0,-999.0,89,0.00,,,0.00,PyWeather,2013-01-24 13:59:00,
2013-01-24 04:00:00,65.1,61.4,29.92,North,5,1.0,-999.0,88,0.00,,,0.00,PyWeather,2013-01-24 14:00:00,
2013-01-24 04:01:00,64.8,60.8,29.92,North,5,1.0,-999.0,87,0.00,,,0.00,PyWeather,2013-01-24 14:01:00,
2013-01-24 04:02:00,64.6,60.6,29.92,North,9,1.0,-999.0,87,0.00,,,0.00,PyWeather,2013-01-24 14:02:00,
2013-01-24 04:03:00,64.4,60.4,29.92,North,9,1.0,-999.0,87,0.00,,,0.00,PyWeather,2013-01-24 14:03:00,
2013-01-24 04:04:00,65.1,62.1,29.92,North,9,2.0,-999.0,90,0.00,,,0.00,PyWeather,2013-01-24 14:04:00,
2013-01-24 04:05:00,64.3,60.7,29.92,North,9,2.0,-999.0,88,0.00,,,0.00,PyWeather,2013-01-24 14:05:00,
2013-01-24 04:07:00,64.4,61.1,29.92,North,5,3.0,-999.0,89,0.00,,,0.00,PyWeather,2013-01-24 14:07:00,
2013-01-24 04:08:00,64.5,61.2,29.92,NE,51,3.0,-999.0,89,0.00,,,0.00,PyWeather,2013-01-24 14:08:00,
2013-01-24 04:09:00,64.5,61.2,29.92,ENE,60,3.0,-999.0,89,0.00,,,0.00,PyWeather,2013-01-24 14:09:00,
2013-01-24 04:10:00,65.3,62.0,29.92,North,5,2.0,-999.0,89,0.00,,,0.00,PyWeather,2013-01-24 14:10:00,
2013-01-24 04:11:00,64.6,61.3,29.92,ENE,61,4.0,-999.0,89,0.00,,,0.00,PyWeather,2013-01-24 14:11:00,
2013-01-24 04:12:00,64.6,61.3,29.92,ENE,61,4.0,-999.0,89,0.00,,,0.00,PyWeather,2013-01-24 14:12:00,
2013-01-24 04:15:00,64.6,60.6,29.92,North,5,1.0,-999.0,87,0.00,,,0.00,PyWeather,2013-01-24 14:15:00,
2013-01-24 04:16:00,64.7,61.4,29.92,ENE,61,4.0,-999.0,89,0.00,,,0.00,PyWeather,2013-01-24 14:16:00,
2013-01-24 04:17:00,64.8,61.8,29.92,ENE,61,4.0,-999.0,90,0.00,,,0.00,PyWeather,2013-01-24 14:17:00,
2013-01-24 04:18:00,64.9,61.6,29.92,ENE,61,3.0,-999.0,89,0.00,,,0.00,PyWeather,2013-01-24 14:18:00,
2013-01-24 04:19:00,65.0,61.7,29.92,ENE,61,3.0,-999.0,89,0.00,,,0.00,PyWeather,2013-01-24 14:19:00,
2013-01-24 04:20:00,64.4,61.1,29.92,North,5,2.0,-999.0,89,0.00,,,0.00,PyWeather,2013-01-24 14:20:00,
2013-01-24 04:21:00,65.1,61.8,29.92,ENE,61,3.0,-999.0,89,0.00,,,0.00,PyWeather,2013-01-24 14:21:00,
2013-01-24 04:22:00,65.1,61.8,29.92,ENE,61,3.0,-999.0,89,0.00,,,0.00,PyWeather,2013-01-24 14:22:00,
2013-01-24 04:23:00,65.2,61.9,29.92,ENE,61,3.0,-999.0,89,0.00,,,0.00,PyWeather,2013-01-24 14:23:00,
2013-01-24 04:25:00,64.6,61.3,29.92,ENE,61,4.0,-999.0,89,0.00,,,0.00,PyWeather,2013-01-24 14:25:00,
2013-01-24 04:26:00,65.2,61.9,29.92,ENE,61,3.0,-999.0,89,0.00,,,0.00,PyWeather,2013-01-24 14:26:00,
2013-01-24 04:29:00,65.1,61.4,29.92,ENE,61,3.0,-999.0,88,0.00,,,0.00,PyWeather,2013-01-24 14:29:00,
2013-01-24 04:30:00,64.8,61.5,29.92,ENE,61,4.0,-999.0,89,0.00,,,0.00,PyWeather,2013-01-24 14:30:00,
2013-01-24 04:33:00,64.9,61.3,29.92,ENE,60,3.0,-999.0,88,0.00,,,0.00,PyWeather,2013-01-24 14:33:00,
2013-01-24 04:34:00,64.9,61.6,29.92,ENE,60,3.0,-999.0,89,0.00,,,0.00,PyWeather,2013-01-24 14:34:00,
2013-01-24 04:35:00,64.9,61.6,29.92,ENE,61,3.0,-999.0,89,0.00,,,0.00,PyWeather,2013-01-24 14:35:00,
2013-01-24 04:36:00,65.1,61.8,29.92,ENE,60,3.0,-999.0,89,0.00,,,0.00,PyWeather,2013-01-24 14:36:00,
2013-01-24 04:37:00,64.8,61.2,29.92,ENE,61,3.0,-999.0,88,0.00,,,0.00,PyWeather,2013-01-24 14:37:00,
2013-01-24 04:41:00,65.2,61.9,29.92,ENE,60,3.0,-999.0,89,0.00,,,0.00,PyWeather,2013-01-24 14:41:00,
2013-01-24 04:46:00,64.9,61.3,29.92,ENE,60,3.0,-999.0,88,0.00,,,0.00,PyWeather,2013-01-24 14:46:00,
2013-01-24 04:48:00,64.3,61.0,29.92,ENE,61,2.0,-999.0,89,0.00,,,0.00,PyWeather,2013-01-24 14:48:00,
2013-01-24 04:49:00,64.4,61.1,29.92,ENE,61,2.0,-999.0,89,0.00,,,0.00,PyWeather,2013-01-24 14:49:00,
2013-01-24 04:50:00,64.5,61.2,29.92,ENE,61,2.0,-999.0,89,0.00,,,0.00,PyWeather,2013-01-24 14:50:00,
2013-01-24 04:51:00,64.7,61.1,29.92,ENE,61,3.0,-999.0,88,0.00,,,0.00,PyWeather,2013-01-24 14:51:00,
2013-01-24 04:53:00,64.6,61.3,29.92,ENE,61,2.0,-999.0,89,0.00,,,0.00,PyWeather,2013-01-24 14:53:00,
2013-01-24 04:56:00,64.4,60.8,29.92,ENE,61,3.0,-999.0,88,0.00,,,0.00,PyWeather,2013-01-24 14:56:00,
2013-01-24 04:58:00,64.8,61.5,29.92,ENE,61,2.0,-999.0,89,0.00,,,0.00,PyWeather,2013-01-24 14:58:00,
2013-01-24 04:59:00,64.8,61.8,29.92,ENE,61,2.0,-999.0,90,0.00,,,0.00,PyWeather,2013-01-24 14:59:00,
2013-01-24 05:00:00,64.9,61.9,29.92,ENE,60,2.0,-999.0,90,0.00,,,0.00,PyWeather,2013-01-24 15:00:00,
2013-01-24 05:02:00,64.4,61.1,29.92,ENE,61,2.0,-999.0,89,0.00,,,0.00,PyWeather,2013-01-24 15:02:00,
2013-01-24 05:03:00,65.2,61.9,29.92,ENE,61,2.0,-999.0,89,0.00,,,0.00,PyWeather,2013-01-24 15:03:00,
2013-01-24 05:04:00,65.3,62.0,29.92,ENE,61,2.0,-999.0,89,0.00,,,0.00,PyWeather,2013-01-24 15:04:00,
2013-01-24 05:05:00,65.4,62.1,29.92,ENE,61,2.0,-999.0,89,0.00,,,0.00,PyWeather,2013-01-24 15:05:00,
2013-01-24 05:06:00,65.5,62.5,29.92,ENE,61,2.0,-999.0,90,0.00,,,0.00,PyWeather,2013-01-24 15:06:00,
2013-01-24 05:07:00,64.6,61.3,29.92,ENE,61,2.0,-999.0,89,0.00,,,0.00,PyWeather,2013-01-24 15:07:00,
2013-01-24 05:08:00,65.7,62.7,29.93,ENE,61,2.0,-999.0,90,0.00,,,0.00,PyWeather,2013-01-24 15:08:00,
2013-01-24 05:09:00,65.8,62.8,29.92,ENE,61,2.0,-999.0,90,0.00,,,0.00,PyWeather,2013-01-24 15:09:00,
2013-01-24 05:10:00,65.8,62.5,29.93,ENE,61,2.0,-999.0,89,0.00,,,0.00,PyWeather,2013-01-24 15:10:00,
2013-01-24 05:11:00,65.8,62.5,29.93,ENE,61,2.0,-999.0,89,0.00,,,0.00,PyWeather,2013-01-24 15:11:00,
2013-01-24 05:12:00,65.8,62.5,29.93,ENE,61,2.0,-999.0,89,0.00,,,0.00,PyWeather,2013-01-24 15:12:00,
2013-01-24 05:13:00,64.9,61.9,29.92,ENE,60,2.0,-999.0,90,0.00,,,0.00,PyWeather,2013-01-24 15:13:00,
2013-01-24 05:14:00,65.7,62.4,29.93,ENE,61,2.0,-999.0,89,0.00,,,0.00,PyWeather,2013-01-24 15:14:00,
2013-01-24 05:15:00,65.6,62.3,29.93,ENE,61,2.0,-999.0,89,0.00,,,0.00,PyWeather,2013-01-24 15:15:00,
2013-01-24 05:16:00,65.6,62.3,29.93,ENE,60,2.0,-999.0,89,0.00,,,0.00,PyWeather,2013-01-24 15:16:00,
2013-01-24 05:17:00,65.6,62.3,29.93,ENE,60,2.0,-999.0,89,0.00,,,0.00,PyWeather,2013-01-24 15:17:00,
2013-01-24 05:18:00,65.3,62.0,29.92,ENE,61,2.0,-999.0,89,0.00,,,0.00,PyWeather,2013-01-24 15:18:00,
2013-01-24 05:19:00,65.6,62.3,29.92,ENE,61,2.0,-999.0,89,0.00,,,0.00,PyWeather,2013-01-24 15:19:00,
2013-01-24 05:22:00,66.0,63.0,29.92,ENE,61,3.0,-999.0,90,0.00,,,0.00,PyWeather,2013-01-24 15:22:00,
2013-01-24 05:23:00,66.1,63.1,29.92,NNE,15,3.0,-999.0,90,0.00,,,0.00,PyWeather,2013-01-24 15:23:00,
2013-01-24 05:24:00,65.8,62.5,29.93,ENE,60,2.0,-999.0,89,0.00,,,0.00,PyWeather,2013-01-24 15:24:00,
2013-01-24 05:25:00,66.4,63.4,29.92,NNE,16,3.0,-999.0,90,0.00,,,0.00,PyWeather,2013-01-24 15:25:00,
2013-01-24 05:26:00,66.5,63.5,29.93,NNE,12,3.0,-999.0,90,0.00,,,0.00,PyWeather,2013-01-24 15:26:00,
2013-01-24 05:27:00,66.6,63.6,29.93,North,5,3.0,-999.0,90,0.00,,,0.00,PyWeather,2013-01-24 15:27:00,
2013-01-24 05:28:00,66.7,63.3,29.93,North,9,4.0,-999.0,89,0.00,,,0.00,PyWeather,2013-01-24 15:28:00,
2013-01-24 05:29:00,65.6,62.3,29.93,ENE,61,2.0,-999.0,89,0.00,,,0.00,PyWeather,2013-01-24 15:29:00,
2013-01-24 05:30:00,66.7,63.3,29.93,NNE,15,4.0,-999.0,89,0.00,,,0.00,PyWeather,2013-01-24 15:30:00,
2013-01-24 05:31:00,66.7,63.3,29.93,NNE,16,4.0,-999.0,89,0.00,,,0.00,PyWeather,2013-01-24 15:31:00,
2013-01-24 05:32:00,66.8,63.4,29.93,NNE,17,4.0,-999.0,89,0.00,,,0.00,PyWeather,2013-01-24 15:32:00,
2013-01-24 05:33:00,66.8,63.4,29.93,NNE,17,4.0,-999.0,89,0.00,,,0.00,PyWeather,2013-01-24 15:33:00,
2013-01-24 05:34:00,65.8,62.8,29.92,ENE,61,3.0,-999.0,90,0.00,,,0.00,PyWeather,2013-01-24 15:34:00,
2013-01-24 05:35:00,66.9,63.5,29.93,NNE,20,3.0,-999.0,89,0.00,,,0.00,PyWeather,2013-01-24 15:35:00,
2013-01-24 05:37:00,67.0,63.6,29.93,NNE,21,3.0,-999.0,89,0.00,,,0.00,PyWeather,2013-01-24 15:37:00,
2013-01-24 05:39:00,66.4,63.4,29.92,NNE,17,3.0,-999.0,90,0.00,,,0.00,PyWeather,2013-01-24 15:39:00,
2013-01-24 05:43:00,67.1,63.4,29.93,NNE,22,3.0,-999.0,88,0.00,,,0.00,PyWeather,2013-01-24 15:43:00,
2013-01-24 05:44:00,67.0,63.3,29.93,NNE,22,2.0,-999.0,88,0.00,,,0.00,PyWeather,2013-01-24 15:44:00,
2013-01-24 05:45:00,67.0,63.3,29.93,NNE,21,2.0,-999.0,88,0.00,,,0.00,PyWeather,2013-01-24 15:45:00,
2013-01-24 05:46:00,66.8,63.4,29.93,NNE,17,4.0,-999.0,89,0.00,,,0.00,PyWeather,2013-01-24 15:46:00,
2013-01-24 05:47:00,66.9,63.2,29.93,NNE,21,2.0,-999.0,88,0.00,,,0.00,PyWeather,2013-01-24 15:47:00,
2013-01-24 05:48:00,66.9,63.2,29.93,NNE,21,2.0,-999.0,88,0.00,,,0.00,PyWeather,2013-01-24 15:48:00,
2013-01-24 05:50:00,66.9,63.2,29.93,NNE,22,2.0,-999.0,88,0.00,,,0.00,PyWeather,2013-01-24 15:50:00,
2013-01-24 05:51:00,67.0,63.6,29.93,NNE,22,3.0,-999.0,89,0.00,,,0.00,PyWeather,2013-01-24 15:51:00,
2013-01-24 05:56:00,67.0,63.3,29.93,NNE,21,3.0,-999.0,88,0.00,,,0.00,PyWeather,2013-01-24 15:56:00,
2013-01-24 06:01:00,66.9,63.2,29.93,NNE,21,2.0,-999.0,88,0.00,,,0.00,PyWeather,2013-01-24 16:01:00,
2013-01-24 06:06:00,67.0,63.3,29.93,NNE,22,2.0,-999.0,88,0.00,,,0.00,PyWeather,2013-01-24 16:06:00,
2013-01-24 06:11:00,66.9,62.9,29.93,ENE,58,3.0,-999.0,87,0.00,,,0.00,PyWeather,2013-01-24 16:11:00,
2013-01-24 06:16:00,66.8,63.1,29.93,ENE,58,3.0,-999.0,88,0.00,,,0.00,PyWeather,2013-01-24 16:16:00,
2013-01-24 06:21:00,66.7,62.7,29.93,ENE,61,3.0,-999.0,87,0.00,,,0.00,PyWeather,2013-01-24 16:21:00,
2013-01-24 06:23:00,66.8,63.1,29.94,ENE,61,2.0,-999.0,88,0.00,,,0.00,PyWeather,2013-01-24 16:23:00,
2013-01-24 06:26:00,67.0,63.3,29.94,ENE,61,2.0,-999.0,88,0.00,,,0.00,PyWeather,2013-01-24 16:26:00,
2013-01-24 06:27:00,66.6,62.6,29.93,ENE,61,2.0,-999.0,87,0.00,,,0.00,PyWeather,2013-01-24 16:27:00,
2013-01-24 06:28:00,67.1,63.4,29.94,ENE,61,3.0,-999.0,88,0.00,,,0.00,PyWeather,2013-01-24 16:28:00,
2013-01-24 06:29:00,67.2,63.5,29.94,ENE,61,3.0,-999.0,88,0.00,,,0.00,PyWeather,2013-01-24 16:29:00,
2013-01-24 06:31:00,67.2,63.5,29.94,NNE,30,3.0,-999.0,88,0.00,,,0.00,PyWeather,2013-01-24 16:31:00,
2013-01-24 06:32:00,66.5,62.8,29.94,ENE,61,1.0,-999.0,88,0.00,,,0.00,PyWeather,2013-01-24 16:32:00,
2013-01-24 06:33:00,67.4,63.7,29.94,NNE,28,4.0,-999.0,88,0.00,,,0.00,PyWeather,2013-01-24 16:33:00,
2013-01-24 06:37:00,66.8,63.1,29.94,ENE,62,2.0,-999.0,88,0.00,,,0.00,PyWeather,2013-01-24 16:37:00,
2013-01-24 06:38:00,67.5,63.8,29.94,NE,46,4.0,-999.0,88,0.00,,,0.00,PyWeather,2013-01-24 16:38:00,
2013-01-24 06:39:00,67.5,63.8,29.94,NE,47,4.0,-999.0,88,0.00,,,0.00,PyWeather,2013-01-24 16:39:00,
2013-01-24 06:41:00,67.5,63.5,29.94,NE,46,3.0,-999.0,87,0.00,,,0.00,PyWeather,2013-01-24 16:41:00,
2013-01-24 06:42:00,67.2,63.5,29.94,ENE,61,3.0,-999.0,88,0.00,,,0.00,PyWeather,2013-01-24 16:42:00,
2013-01-24 06:43:00,67.4,63.4,29.94,NE,47,3.0,-999.0,87,0.00,,,0.00,PyWeather,2013-01-24 16:43:00,
2013-01-24 06:44:00,67.4,63.4,29.94,NE,46,2.0,-999.0,87,0.00,,,0.00,PyWeather,2013-01-24 16:44:00,
2013-01-24 06:45:00,67.4,63.4,29.94,NE,47,2.0,-999.0,87,0.00,,,0.00,PyWeather,2013-01-24 16:45:00,
2013-01-24 06:46:00,67.4,63.4,29.94,NE,46,1.0,-999.0,87,0.00,,,0.00,PyWeather,2013-01-24 16:46:00,
2013-01-24 06:47:00,67.3,63.3,29.94,NE,47,1.0,-999.0,87,0.00,,,0.00,PyWeather,2013-01-24 16:47:00,
2013-01-24 06:48:00,67.5,63.8,29.94,NNE,28,4.0,-999.0,88,0.00,,,0.00,PyWeather,2013-01-24 16:48:00,
2013-01-24 06:49:00,67.3,63.3,29.94,NE,46,1.0,-999.0,87,0.00,,,0.00,PyWeather,2013-01-24 16:49:00,
2013-01-24 06:50:00,67.2,63.2,29.94,NE,48,1.0,-999.0,87,0.00,,,0.00,PyWeather,2013-01-24 16:50:00,
2013-01-24 06:52:00,67.0,63.0,29.94,NE,47,1.0,-999.0,87,0.00,,,0.00,PyWeather,2013-01-24 16:52:00,
2013-01-24 06:53:00,67.5,63.5,29.94,NE,47,4.0,-999.0,87,0.00,,,0.00,PyWeather,2013-01-24 16:53:00,
2013-01-24 06:54:00,67.0,63.0,29.94,NE,47,2.0,-999.0,87,0.00,,,0.00,PyWeather,2013-01-24 16:54:00,
2013-01-24 06:55:00,67.0,63.0,29.94,NE,47,2.0,-999.0,87,0.00,,,0.00,PyWeather,2013-01-24 16:55:00,
2013-01-24 06:57:00,67.0,63.0,29.94,NE,47,2.0,-999.0,87,0.00,,,0.00,PyWeather,2013-01-24 16:57:00,
2013-01-24 06:58:00,67.0,63.0,29.94,NE,47,3.0,-999.0,87,0.00,,,0.00,PyWeather,2013-01-24 16:58:00,
2013-01-24 06:59:00,67.4,63.4,29.94,NE,47,2.0,-999.0,87,0.00,,,0.00,PyWeather,2013-01-24 16:59:00,
2013-01-24 07:00:00,67.0,63.0,29.94,NNE,31,3.0,-999.0,87,0.00,,,0.00,PyWeather,2013-01-24 17:00:00,
2013-01-24 07:02:00,67.2,63.5,29.94,NNE,25,3.0,-999.0,88,0.00,,,0.00,PyWeather,2013-01-24 17:02:00,
2013-01-24 07:03:00,67.3,63.6,29.94,NNE,24,3.0,-999.0,88,0.00,,,0.00,PyWeather,2013-01-24 17:03:00,
2013-01-24 07:04:00,67.2,63.2,29.94,NE,46,1.0,-999.0,87,0.00,,,0.00,PyWeather,2013-01-24 17:04:00,
2013-01-24 07:05:00,67.4,63.7,29.94,NNE,24,2.0,-999.0,88,0.00,,,0.00,PyWeather,2013-01-24 17:05:00,
2013-01-24 07:07:00,67.5,63.8,29.94,NNE,25,2.0,-999.0,88,0.00,,,0.00,PyWeather,2013-01-24 17:07:00,
2013-01-24 07:08:00,67.5,63.8,29.94,NNE,24,2.0,-999.0,88,0.00,,,0.00,PyWeather,2013-01-24 17:08:00,
2013-01-24 07:09:00,67.0,63.0,29.94,NE,46,2.0,-999.0,87,0.00,,,0.00,PyWeather,2013-01-24 17:09:00,
2013-01-24 07:10:00,67.6,63.9,29.94,NNE,24,2.0,-999.0,88,0.00,,,0.00,PyWeather,2013-01-24 17:10:00,
2013-01-24 07:11:00,67.6,63.9,29.94,NNE,24,2.0,-999.0,88,0.00,,,0.00,PyWeather,2013-01-24 17:11:00,
2013-01-24 07:12:00,67.7,64.0,29.94,NNE,24,2.0,-999.0,88,0.00,,,0.00,PyWeather,2013-01-24 17:12:00,
2013-01-24 07:13:00,67.7,63.7,29.94,NNE,24,2.0,-999.0,87,0.00,,,0.00,PyWeather,2013-01-24 17:13:00,
2013-01-24 07:14:00,67.0,63.0,29.94,NNE,31,3.0,-999.0,87,0.00,,,0.00,PyWeather,2013-01-24 17:14:00,
2013-01-24 07:15:00,67.7,63.7,29.94,NNE,24,2.0,-999.0,87,0.00,,,0.00,PyWeather,2013-01-24 17:15:00,
2013-01-24 07:16:00,67.6,63.6,29.95,NNE,25,2.0,-999.0,87,0.00,,,0.00,PyWeather,2013-01-24 17:16:00,
2013-01-24 07:17:00,67.6,63.6,29.95,NNE,25,2.0,-999.0,87,0.00,,,0.00,PyWeather,2013-01-24 17:17:00,
2013-01-24 07:18:00,67.6,63.6,29.94,NNE,24,2.0,-999.0,87,0.00,,,0.00,PyWeather,2013-01-24 17:18:00,
2013-01-24 07:19:00,67.5,63.5,29.95,NNE,24,2.0,-999.0,87,0.00,,,0.00,PyWeather,2013-01-24 17:19:00,
2013-01-24 07:20:00,67.4,63.7,29.94,NNE,25,2.0,-999.0,88,0.00,,,0.00,PyWeather,2013-01-24 17:20:00,
2013-01-24 07:21:00,67.6,63.9,29.95,NNE,25,2.0,-999.0,88,0.00,,,0.00,PyWeather,2013-01-24 17:21:00,
2013-01-24 07:22:00,67.7,64.0,29.95,NNE,24,2.0,-999.0,88,0.00,,,0.00,PyWeather,2013-01-24 17:22:00,
2013-01-24 07:23:00,67.7,64.0,29.95,NNE,25,2.0,-999.0,88,0.00,,,0.00,PyWeather,2013-01-24 17:23:00,
2013-01-24 07:24:00,67.8,63.8,29.95,NNE,24,2.0,-999.0,87,0.00,,,0.00,PyWeather,2013-01-24 17:24:00,
2013-01-24 07:25:00,67.6,63.9,29.94,NNE,24,2.0,-999.0,88,0.00,,,0.00,PyWeather,2013-01-24 17:25:00,
2013-01-24 07:26:00,67.9,63.9,29.95,NNE,25,3.0,-999.0,87,0.00,,,0.00,PyWeather,2013-01-24 17:26:00,
2013-01-24 07:29:00,68.1,64.4,29.95,NNE,24,3.0,-999.0,88,0.00,,,0.00,PyWeather,2013-01-24 17:29:00,
2013-01-24 07:30:00,68.1,64.4,29.95,NNE,24,3.0,-999.0,88,0.00,,,0.00,PyWeather,2013-01-24 17:30:00,
2013-01-24 07:31:00,67.6,63.6,29.94,NNE,24,2.0,-999.0,87,0.00,,,0.00,PyWeather,2013-01-24 17:31:00,
2013-01-24 07:32:00,68.3,64.3,29.95,NNE,24,3.0,-999.0,87,0.00,,,0.00,PyWeather,2013-01-24 17:32:00,
2013-01-24 07:33:00,68.4,64.4,29.95,NNE,27,3.0,-999.0,87,0.00,,,0.00,PyWeather,2013-01-24 17:33:00,
2013-01-24 07:34:00,68.4,64.4,29.95,NNE,28,3.0,-999.0,87,0.00,,,0.00,PyWeather,2013-01-24 17:34:00,
2013-01-24 07:35:00,68.5,64.5,29.95,NE,44,3.0,-999.0,87,0.00,,,0.00,PyWeather,2013-01-24 17:35:00,
2013-01-24 07:36:00,67.7,64.0,29.95,NNE,24,2.0,-999.0,88,0.00,,,0.00,PyWeather,2013-01-24 17:36:00,
2013-01-24 07:39:00,68.7,64.7,29.96,ENE,61,3.0,-999.0,87,0.00,,,0.00,PyWeather,2013-01-24 17:39:00,
2013-01-24 07:40:00,68.8,64.8,29.96,ENE,61,4.0,-999.0,87,0.00,,,0.00,PyWeather,2013-01-24 17:40:00,
2013-01-24 07:41:00,68.0,64.3,29.95,NNE,24,3.0,-999.0,88,0.00,,,0.00,PyWeather,2013-01-24 17:41:00,
2013-01-24 07:46:00,68.3,64.3,29.95,NNE,27,3.0,-999.0,87,0.00,,,0.00,PyWeather,2013-01-24 17:46:00,
2013-01-24 07:47:00,69.0,64.7,29.96,East,90,4.0,-999.0,86,0.00,,,0.00,PyWeather,2013-01-24 17:47:00,
2013-01-24 07:48:00,69.0,64.3,29.96,East,90,4.0,-999.0,85,0.00,,,0.00,PyWeather,2013-01-24 17:48:00,
2013-01-24 07:50:00,69.1,64.4,29.96,East,90,4.0,-999.0,85,0.00,,,0.00,PyWeather,2013-01-24 17:50:00,
2013-01-24 07:51:00,68.7,64.7,29.95,ENE,61,3.0,-999.0,87,0.00,,,0.00,PyWeather,2013-01-24 17:51:00,
2013-01-24 07:52:00,69.2,64.5,29.96,East,90,4.0,-999.0,85,0.00,,,0.00,PyWeather,2013-01-24 17:52:00,
2013-01-24 07:54:00,69.3,64.6,29.96,East,82,5.0,-999.0,85,0.00,,,0.00,PyWeather,2013-01-24 17:54:00,
2013-01-24 07:55:00,69.3,64.6,29.96,East,82,5.0,-999.0,85,0.00,,,0.00,PyWeather,2013-01-24 17:55:00,
2013-01-24 07:56:00,68.9,64.6,29.96,ENE,63,4.0,-999.0,86,0.00,,,0.00,PyWeather,2013-01-24 17:56:00,
2013-01-24 07:57:00,69.5,64.8,29.96,ENE,71,4.0,-999.0,85,0.00,,,0.00,PyWeather,2013-01-24 17:57:00,
2013-01-24 07:58:00,69.5,64.8,29.96,ENE,72,4.0,-999.0,85,0.00,,,0.00,PyWeather,2013-01-24 17:58:00,
2013-01-24 07:59:00,69.6,64.9,29.96,ENE,72,4.0,-999.0,85,0.00,,,0.00,PyWeather,2013-01-24 17:59:00,
2013-01-24 08:01:00,69.7,65.0,29.96,ENE,77,4.0,-999.0,85,0.00,,,0.00,PyWeather,2013-01-24 18:01:00,
2013-01-24 08:02:00,69.0,64.3,29.96,East,90,4.0,-999.0,85,0.00,,,0.00,PyWeather,2013-01-24 18:02:00,
2013-01-24 08:03:00,69.8,64.8,29.96,East,79,4.0,-999.0,84,0.00,,,0.00,PyWeather,2013-01-24 18:03:00,
2013-01-24 08:04:00,69.8,64.8,29.96,East,80,4.0,-999.0,84,0.00,,,0.00,PyWeather,2013-01-24 18:04:00,
2013-01-24 08:05:00,69.9,64.9,29.96,East,80,4.0,-999.0,84,0.00,,,0.00,PyWeather,2013-01-24 18:05:00,
2013-01-24 08:07:00,69.3,64.6,29.96,East,83,5.0,-999.0,85,0.00,,,0.00,PyWeather,2013-01-24 18:07:00,
2013-01-24 08:12:00,69.5,64.8,29.96,ENE,71,4.0,-999.0,85,0.00,,,0.00,PyWeather,2013-01-24 18:12:00,
2013-01-24 08:17:00,69.8,64.8,29.96,East,79,4.0,-999.0,84,0.00,,,0.00,PyWeather,2013-01-24 18:17:00,
2013-01-24 08:19:00,70.4,65.0,29.97,ENE,78,2.0,-999.0,83,0.00,,,0.00,PyWeather,2013-01-24 18:19:00,
2013-01-24 08:21:00,70.5,65.1,29.97,East,79,2.0,-999.0,83,0.00,,,0.00,PyWeather,2013-01-24 18:21:00,
2013-01-24 08:22:00,70.0,65.0,29.96,East,79,3.0,-999.0,84,0.00,,,0.00,PyWeather,2013-01-24 18:22:00,
2013-01-24 08:25:00,70.8,65.1,29.97,ENE,70,1.0,-999.0,82,0.00,,,0.00,PyWeather,2013-01-24 18:25:00,
2013-01-24 08:27:00,70.2,64.8,29.97,ENE,78,3.0,-999.0,83,0.00,,,0.00,PyWeather,2013-01-24 18:27:00,
2013-01-24 08:28:00,70.9,65.2,29.97,ENE,57,2.0,-999.0,82,0.00,,,0.00,PyWeather,2013-01-24 18:28:00,
2013-01-24 08:29:00,70.9,65.2,29.97,NE,53,2.0,-999.0,82,0.00,,,0.00,PyWeather,2013-01-24 18:29:00,
2013-01-24 08:32:00,71.1,65.4,29.97,NE,53,3.0,-999.0,82,0.00,,,0.00,PyWeather,2013-01-24 18:32:00,
2013-01-24 08:33:00,70.4,65.0,29.97,ENE,78,2.0,-999.0,83,0.00,,,0.00,PyWeather,2013-01-24 18:33:00,
2013-01-24 08:35:00,71.2,65.1,29.97,NE,51,4.0,-999.0,81,0.00,,,0.00,PyWeather,2013-01-24 18:35:00,
2013-01-24 08:36:00,71.1,65.0,29.97,NE,51,4.0,-999.0,81,0.00,,,0.00,PyWeather,2013-01-24 18:36:00,
2013-01-24 08:37:00,71.2,65.1,29.97,NE,51,3.0,-999.0,81,0.00,,,0.00,PyWeather,2013-01-24 18:37:00,
2013-01-24 08:38:00,70.7,65.3,29.97,ENE,78,1.0,-999.0,83,0.00,,,0.00,PyWeather,2013-01-24 18:38:00,
2013-01-24 08:39:00,71.2,65.1,29.97,North,355,3.0,-999.0,81,0.00,,,0.00,PyWeather,2013-01-24 18:39:00,
2013-01-24 08:40:00,71.2,65.1,29.97,North,355,4.0,-999.0,81,0.00,,,0.00,PyWeather,2013-01-24 18:40:00,
2013-01-24 08:41:00,71.3,65.2,29.97,North,5,4.0,-999.0,81,0.00,,,0.00,PyWeather,2013-01-24 18:41:00,
2013-01-24 08:42:00,71.3,65.2,29.97,North,349,4.0,-999.0,81,0.00,,,0.00,PyWeather,2013-01-24 18:42:00,
2013-01-24 08:43:00,71.3,65.2,29.97,North,350,4.0,-999.0,81,0.00,,,0.00,PyWeather,2013-01-24 18:43:00,
2013-01-24 08:44:00,70.9,64.9,29.97,NE,53,2.0,-999.0,81,0.00,,,0.00,PyWeather,2013-01-24 18:44:00,
2013-01-24 08:49:00,71.2,65.1,29.97,NE,51,4.0,-999.0,81,0.00,,,0.00,PyWeather,2013-01-24 18:49:00,
2013-01-24 08:50:00,71.8,65.7,29.97,NNW,329,4.0,-999.0,81,0.00,,,0.00,PyWeather,2013-01-24 18:50:00,
2013-01-24 08:53:00,72.1,65.7,29.97,North,360,4.0,-999.0,80,0.00,,,0.00,PyWeather,2013-01-24 18:53:00,
2013-01-24 08:54:00,71.2,65.1,29.97,North,5,4.0,-999.0,81,0.00,,,0.00,PyWeather,2013-01-24 18:54:00,
2013-01-24 08:58:00,72.8,65.7,29.97,NNE,19,5.0,-999.0,78,0.00,,,0.00,PyWeather,2013-01-24 18:58:00,
2013-01-24 08:59:00,71.5,65.4,29.97,NNE,19,4.0,-999.0,81,0.00,,,0.00,PyWeather,2013-01-24 18:59:00,
2013-01-24 09:00:00,72.9,65.8,29.97,NNW,346,6.0,-999.0,78,0.00,,,0.00,PyWeather,2013-01-24 19:00:00,
2013-01-24 09:01:00,73.0,65.8,29.97,NNW,335,6.0,-999.0,78,0.00,,,0.00,PyWeather,2013-01-24 19:01:00,
2013-01-24 09:03:00,73.0,65.5,29.97,North,350,6.0,-999.0,77,0.00,,,0.00,PyWeather,2013-01-24 19:03:00,
2013-01-24 09:04:00,71.9,65.5,29.97,NNW,341,4.0,-999.0,80,0.00,,,0.00,PyWeather,2013-01-24 19:04:00,
2013-01-24 09:05:00,73.1,65.6,29.97,NNW,340,6.0,-999.0,77,0.00,,,0.00,PyWeather,2013-01-24 19:05:00,
2013-01-24 09:06:00,73.1,65.6,29.97,North,360,6.0,-999.0,77,0.00,,,0.00,PyWeather,2013-01-24 19:06:00,
2013-01-24 09:07:00,73.1,65.2,29.97,North,355,6.0,-999.0,76,0.00,,,0.00,PyWeather,2013-01-24 19:07:00,
2013-01-24 09:08:00,73.2,65.7,29.97,North,351,7.0,-999.0,77,0.00,,,0.00,PyWeather,2013-01-24 19:08:00,
2013-01-24 09:09:00,72.5,65.7,29.97,NNW,338,4.0,-999.0,79,0.00,,,0.00,PyWeather,2013-01-24 19:09:00,
2013-01-24 09:10:00,73.1,65.2,29.97,North,355,7.0,-999.0,76,0.00,,,0.00,PyWeather,2013-01-24 19:10:00,
2013-01-24 09:13:00,73.0,65.5,29.97,NNE,17,8.0,-999.0,77,0.00,,,0.00,PyWeather,2013-01-24 19:13:00,
2013-01-24 09:14:00,73.0,65.5,29.97,NNE,17,7.0,-999.0,77,0.00,,,0.00,PyWeather,2013-01-24 19:14:00,
2013-01-24 09:15:00,73.0,65.5,29.97,NNW,345,6.0,-999.0,77,0.00,,,0.00,PyWeather,2013-01-24 19:15:00,
2013-01-24 09:16:00,73.1,65.6,29.97,North,360,7.0,-999.0,77,0.00,,,0.00,PyWeather,2013-01-24 19:16:00,
2013-01-24 09:18:00,73.1,65.6,29.97,North,9,6.0,-999.0,77,0.00,,,0.00,PyWeather,2013-01-24 19:18:00,
2013-01-24 09:19:00,73.2,65.7,29.97,North,351,6.0,-999.0,77,0.00,,,0.00,PyWeather,2013-01-24 19:19:00,
2013-01-24 09:20:00,73.1,65.6,29.97,North,355,6.0,-999.0,77,0.00,,,0.00,PyWeather,2013-01-24 19:20:00,
2013-01-24 09:21:00,73.2,65.3,29.97,North,350,5.0,-999.0,76,0.00,,,0.00,PyWeather,2013-01-24 19:21:00,
2013-01-24 09:22:00,73.1,65.2,29.97,North,351,5.0,-999.0,76,0.00,,,0.00,PyWeather,2013-01-24 19:22:00,
2013-01-24 09:25:00,73.0,65.5,29.97,North,5,7.0,-999.0,77,0.00,,,0.00,PyWeather,2013-01-24 19:25:00,
2013-01-24 09:26:00,73.0,64.8,29.97,NNW,345,6.0,-999.0,75,0.00,,,0.00,PyWeather,2013-01-24 19:26:00,
2013-01-24 09:30:00,73.1,65.6,29.97,North,360,7.0,-999.0,77,0.00,,,0.00,PyWeather,2013-01-24 19:30:00,
2013-01-24 09:32:00,73.0,64.8,29.97,North,350,7.0,-999.0,75,0.00,,,0.00,PyWeather,2013-01-24 19:32:00,
2013-01-24 09:34:00,73.0,64.8,29.97,North,350,7.0,-999.0,75,0.00,,,0.00,PyWeather,2013-01-24 19:34:00,
2013-01-24 09:35:00,73.0,64.8,29.97,NNW,347,7.0,-999.0,75,0.00,,,0.00,PyWeather,2013-01-24 19:35:00,
2013-01-24 09:36:00,73.2,65.3,29.97,North,5,5.0,-999.0,76,0.00,,,0.00,PyWeather,2013-01-24 19:36:00,
2013-01-24 09:37:00,73.0,64.8,29.97,NNW,348,7.0,-999.0,75,0.00,,,0.00,PyWeather,2013-01-24 19:37:00,
2013-01-24 09:38:00,73.1,64.9,29.97,NNW,348,7.0,-999.0,75,0.00,,,0.00,PyWeather,2013-01-24 19:38:00,
2013-01-24 09:39:00,73.0,64.8,29.97,North,349,7.0,-999.0,75,0.00,,,0.00,PyWeather,2013-01-24 19:39:00,
2013-01-24 09:41:00,73.0,64.8,29.97,NNW,336,6.0,-999.0,75,0.00,,,0.00,PyWeather,2013-01-24 19:41:00,
2013-01-24 09:43:00,73.2,64.9,29.97,NNE,18,7.0,-999.0,75,0.00,,,0.00,PyWeather,2013-01-24 19:43:00,
2013-01-24 09:44:00,73.2,64.9,29.97,NNE,24,7.0,-999.0,75,0.00,,,0.00,PyWeather,2013-01-24 19:44:00,
2013-01-24 09:45:00,73.4,65.1,29.97,North,5,7.0,-999.0,75,0.00,,,0.00,PyWeather,2013-01-24 19:45:00,
2013-01-24 09:47:00,73.0,64.8,29.97,North,350,7.0,-999.0,75,0.00,,,0.00,PyWeather,2013-01-24 19:47:00,
2013-01-24 09:49:00,73.5,65.2,29.97,North,5,6.0,-999.0,75,0.00,,,0.00,PyWeather,2013-01-24 19:49:00,
2013-01-24 09:50:00,73.6,65.3,29.97,North,351,6.0,-999.0,75,0.00,,,0.00,PyWeather,2013-01-24 19:50:00,
2013-01-24 09:51:00,73.6,65.3,29.97,North,360,6.0,-999.0,75,0.00,,,0.00,PyWeather,2013-01-24 19:51:00,
2013-01-24 09:52:00,73.0,64.8,29.97,NNW,348,7.0,-999.0,75,0.00,,,0.00,PyWeather,2013-01-24 19:52:00,
2013-01-24 09:55:00,73.8,65.5,29.97,NNE,13,6.0,-999.0,75,0.00,,,0.00,PyWeather,2013-01-24 19:55:00,
2013-01-24 09:57:00,73.2,64.9,29.97,NNE,15,7.0,-999.0,75,0.00,,,0.00,PyWeather,2013-01-24 19:57:00,
2013-01-24 10:02:00,73.5,65.2,29.97,North,9,6.0,-999.0,75,0.00,,,0.00,PyWeather,2013-01-24 20:02:00,
2013-01-24 10:08:00,73.7,65.4,29.97,NE,40,6.0,-999.0,75,0.00,,,0.00,PyWeather,2013-01-24 20:08:00,
2013-01-24 10:13:00,74.0,65.3,29.98,NE,34,6.0,-999.0,74,0.00,,,0.00,PyWeather,2013-01-24 20:13:00,
2013-01-24 10:14:00,74.3,65.3,29.98,North,350,5.0,-999.0,73,0.00,,,0.00,PyWeather,2013-01-24 20:14:00,
2013-01-24 10:15:00,74.3,65.3,29.98,NW,323,5.0,-999.0,73,0.00,,,0.00,PyWeather,2013-01-24 20:15:00,
2013-01-24 10:16:00,74.3,65.3,29.98,NW,318,5.0,-999.0,73,0.00,,,0.00,PyWeather,2013-01-24 20:16:00,
2013-01-24 10:17:00,74.3,64.9,29.98,NNW,334,6.0,-999.0,72,0.00,,,0.00,PyWeather,2013-01-24 20:17:00,
2013-01-24 10:18:00,74.2,65.2,29.97,North,360,5.0,-999.0,73,0.00,,,0.00,PyWeather,2013-01-24 20:18:00,
2013-01-24 10:22:00,74.3,64.9,29.98,NNW,342,6.0,-999.0,72,0.00,,,0.00,PyWeather,2013-01-24 20:22:00,
2013-01-24 10:23:00,74.3,65.3,29.98,North,360,4.0,-999.0,73,0.00,,,0.00,PyWeather,2013-01-24 20:23:00,
2013-01-24 10:25:00,74.3,64.9,29.98,NNW,342,5.0,-999.0,72,0.00,,,0.00,PyWeather,2013-01-24 20:25:00,
2013-01-24 10:26:00,74.4,65.0,29.98,NNW,342,4.0,-999.0,72,0.00,,,0.00,PyWeather,2013-01-24 20:26:00,
2013-01-24 10:28:00,74.5,65.1,29.98,NNW,344,4.0,-999.0,72,0.00,,,0.00,PyWeather,2013-01-24 20:28:00,
2013-01-24 10:29:00,74.3,65.3,29.98,NNW,333,5.0,-999.0,73,0.00,,,0.00,PyWeather,2013-01-24 20:29:00,
2013-01-24 10:32:00,74.6,65.2,29.98,North,9,4.0,-999.0,72,0.00,,,0.00,PyWeather,2013-01-24 20:32:00,
2013-01-24 10:33:00,74.7,64.9,29.98,North,355,4.0,-999.0,71,0.00,,,0.00,PyWeather,2013-01-24 20:33:00,
2013-01-24 10:34:00,74.3,64.9,29.98,North,350,6.0,-999.0,72,0.00,,,0.00,PyWeather,2013-01-24 20:34:00,
2013-01-24 10:35:00,74.9,65.1,29.98,NNW,328,5.0,-999.0,71,0.00,,,0.00,PyWeather,2013-01-24 20:35:00,
2013-01-24 10:36:00,75.0,64.8,29.98,NNW,342,6.0,-999.0,70,0.00,,,0.00,PyWeather,2013-01-24 20:36:00,
2013-01-24 10:37:00,75.0,64.8,29.98,NNW,338,6.0,-999.0,70,0.00,,,0.00,PyWeather,2013-01-24 20:37:00,
2013-01-24 10:39:00,74.3,64.9,29.98,NNW,342,4.0,-999.0,72,0.00,,,0.00,PyWeather,2013-01-24 20:39:00,
2013-01-24 10:41:00,75.1,64.8,29.98,North,350,8.0,-999.0,70,0.00,,,0.00,PyWeather,2013-01-24 20:41:00,
2013-01-24 10:42:00,75.1,64.8,29.98,NNW,338,8.0,-999.0,70,0.00,,,0.00,PyWeather,2013-01-24 20:42:00,
2013-01-24 10:43:00,75.0,64.8,29.98,NNW,337,8.0,-999.0,70,0.00,,,0.00,PyWeather,2013-01-24 20:43:00,
2013-01-24 10:44:00,74.6,65.2,29.98,North,5,4.0,-999.0,72,0.00,,,0.00,PyWeather,2013-01-24 20:44:00,
2013-01-24 10:45:00,75.0,64.8,29.98,NNW,339,8.0,-999.0,70,0.00,,,0.00,PyWeather,2013-01-24 20:45:00,
2013-01-24 10:46:00,74.9,64.7,29.98,NNW,347,8.0,-999.0,70,0.00,,,0.00,PyWeather,2013-01-24 20:46:00,
2013-01-24 10:47:00,74.9,64.7,29.98,North,360,8.0,-999.0,70,0.00,,,0.00,PyWeather,2013-01-24 20:47:00,
2013-01-24 10:48:00,74.9,64.7,29.98,NNW,344,8.0,-999.0,70,0.00,,,0.00,PyWeather,2013-01-24 20:48:00,
2013-01-24 10:49:00,74.9,64.7,29.98,NNW,332,6.0,-999.0,70,0.00,,,0.00,PyWeather,2013-01-24 20:49:00,
2013-01-24 10:50:00,74.9,64.7,29.97,North,355,8.0,-999.0,70,0.00,,,0.00,PyWeather,2013-01-24 20:50:00,
2013-01-24 10:51:00,74.9,65.1,29.97,North,360,8.0,-999.0,71,0.00,,,0.00,PyWeather,2013-01-24 20:51:00,
2013-01-24 10:52:00,75.0,65.2,29.97,North,355,8.0,-999.0,71,0.00,,,0.00,PyWeather,2013-01-24 20:52:00,
2013-01-24 10:54:00,75.1,64.8,29.98,NNW,340,7.0,-999.0,70,0.00,,,0.00,PyWeather,2013-01-24 20:54:00,
2013-01-24 11:00:00,74.9,64.7,29.98,North,355,8.0,-999.0,70,0.00,,,0.00,PyWeather,2013-01-24 21:00:00,
2013-01-24 11:05:00,75.0,65.2,29.97,North,355,8.0,-999.0,71,0.00,,,0.00,PyWeather,2013-01-24 21:05:00,
2013-01-24 11:10:00,75.1,65.2,29.97,North,350,7.0,-999.0,71,0.00,,,0.00,PyWeather,2013-01-24 21:10:00,
2013-01-24 11:15:00,75.0,64.8,29.97,North,11,8.0,-999.0,70,0.00,,,0.00,PyWeather,2013-01-24 21:15:00,
2013-01-24 11:20:00,75.3,65.4,29.97,NNW,341,7.0,-999.0,71,0.00,,,0.00,PyWeather,2013-01-24 21:20:00,
2013-01-24 11:25:00,75.4,65.1,29.97,North,351,8.0,-999.0,70,0.00,,,0.00,PyWeather,2013-01-24 21:25:00,
2013-01-24 11:31:00,75.6,65.7,29.96,North,360,9.0,-999.0,71,0.00,,,0.00,PyWeather,2013-01-24 21:31:00,
2013-01-24 11:36:00,75.7,65.4,29.96,NNW,345,10.0,-999.0,70,0.00,,,0.00,PyWeather,2013-01-24 21:36:00,
2013-01-24 11:41:00,75.7,65.4,29.96,NNW,346,10.0,-999.0,70,0.00,,,0.00,PyWeather,2013-01-24 21:41:00,
2013-01-24 11:46:00,76.0,65.3,29.96,NNW,345,9.0,-999.0,69,0.00,,,0.00,PyWeather,2013-01-24 21:46:00,
2013-01-24 11:52:00,76.1,65.0,29.95,North,360,8.0,-999.0,68,0.00,,,0.00,PyWeather,2013-01-24 21:52:00,
2013-01-24 11:57:00,76.4,65.3,29.95,North,349,7.0,-999.0,68,0.00,,,0.00,PyWeather,2013-01-24 21:57:00,
2013-01-24 12:03:00,77.0,65.8,29.94,NE,40,5.0,-999.0,68,0.00,,,0.00,PyWeather,2013-01-24 22:03:00,
2013-01-24 12:08:00,77.5,65.5,29.94,NNE,17,5.0,-999.0,66,0.00,,,0.00,PyWeather,2013-01-24 22:08:00,
2013-01-24 12:13:00,77.6,64.7,29.94,North,351,7.0,-999.0,64,0.00,,,0.00,PyWeather,2013-01-24 22:13:00,
2013-01-24 12:18:00,77.5,65.0,29.94,North,355,7.0,-999.0,65,0.00,,,0.00,PyWeather,2013-01-24 22:18:00,
2013-01-24 12:24:00,77.9,64.5,29.94,NNW,348,7.0,-999.0,63,0.00,,,0.00,PyWeather,2013-01-24 22:24:00,
2013-01-24 12:29:00,78.3,64.0,29.93,NW,318,8.0,-999.0,61,0.00,,,0.00,PyWeather,2013-01-24 22:29:00,
2013-01-24 12:34:00,78.2,63.9,29.93,NNW,343,9.0,-999.0,61,0.00,,,0.00,PyWeather,2013-01-24 22:34:00,
2013-01-24 12:39:00,78.0,64.6,29.93,North,9,10.0,-999.0,63,0.00,,,0.00,PyWeather,2013-01-24 22:39:00,
2013-01-24 12:45:00,77.5,64.6,29.93,NNW,335,10.0,-999.0,64,0.00,,,0.00,PyWeather,2013-01-24 22:45:00,
2013-01-24 12:50:00,77.3,64.4,29.93,North,355,11.0,-999.0,64,0.00,,,0.00,PyWeather,2013-01-24 22:50:00,
2013-01-24 12:56:00,77.1,64.7,29.93,NNW,336,11.0,-999.0,65,0.00,,,0.00,PyWeather,2013-01-24 22:56:00,
2013-01-24 13:01:00,76.8,64.4,29.92,North,350,11.0,-999.0,65,0.00,,,0.00,PyWeather,2013-01-24 23:01:00,
2013-01-24 13:02:00,76.5,64.9,29.92,NNW,340,12.0,-999.0,67,0.00,,,0.00,PyWeather,2013-01-24 23:02:00,
2013-01-24 13:04:00,76.4,64.9,29.92,NNW,342,12.0,-999.0,67,0.00,,,0.00,PyWeather,2013-01-24 23:04:00,
2013-01-24 13:06:00,76.9,64.5,29.92,NW,312,11.0,-999.0,65,0.00,,,0.00,PyWeather,2013-01-24 23:06:00,
2013-01-24 13:07:00,76.2,64.7,29.92,NNW,339,12.0,-999.0,67,0.00,,,0.00,PyWeather,2013-01-24 23:07:00,
2013-01-24 13:08:00,76.2,65.1,29.92,North,355,12.0,-999.0,68,0.00,,,0.00,PyWeather,2013-01-24 23:08:00,
2013-01-24 13:10:00,76.3,64.8,29.92,NNW,332,12.0,-999.0,67,0.00,,,0.00,PyWeather,2013-01-24 23:10:00,
2013-01-24 13:11:00,76.5,64.9,29.92,NNW,347,12.0,-999.0,67,0.00,,,0.00,PyWeather,2013-01-24 23:11:00,
2013-01-24 13:12:00,76.5,64.9,29.92,NNW,332,12.0,-999.0,67,0.00,,,0.00,PyWeather,2013-01-24 23:12:00,
2013-01-24 13:13:00,76.4,64.9,29.92,NNW,342,12.0,-999.0,67,0.00,,,0.00,PyWeather,2013-01-24 23:13:00,
2013-01-24 13:14:00,76.5,65.4,29.92,NNW,328,12.0,-999.0,68,0.00,,,0.00,PyWeather,2013-01-24 23:14:00,
2013-01-24 13:15:00,76.5,64.9,29.92,NNW,337,12.0,-999.0,67,0.00,,,0.00,PyWeather,2013-01-24 23:15:00,
2013-01-24 13:16:00,76.5,64.9,29.92,NNW,336,12.0,-999.0,67,0.00,,,0.00,PyWeather,2013-01-24 23:16:00,
2013-01-24 13:17:00,76.7,64.7,29.92,NNW,329,12.0,-999.0,66,0.00,,,0.00,PyWeather,2013-01-24 23:17:00,
2013-01-24 13:19:00,76.8,64.8,29.92,NNW,348,11.0,-999.0,66,0.00,,,0.00,PyWeather,2013-01-24 23:19:00,
2013-01-24 13:20:00,76.9,64.9,29.91,NNW,337,11.0,-999.0,66,0.00,,,0.00,PyWeather,2013-01-24 23:20:00,
2013-01-24 13:21:00,76.2,64.7,29.92,NNW,327,12.0,-999.0,67,0.00,,,0.00,PyWeather,2013-01-24 23:21:00,
2013-01-24 13:22:00,76.8,64.8,29.92,North,350,11.0,-999.0,66,0.00,,,0.00,PyWeather,2013-01-24 23:22:00,
2013-01-24 13:26:00,76.4,64.9,29.92,NNW,343,12.0,-999.0,67,0.00,,,0.00,PyWeather,2013-01-24 23:26:00,
2013-01-24 13:31:00,76.7,64.7,29.92,North,355,12.0,-999.0,66,0.00,,,0.00,PyWeather,2013-01-24 23:31:00,
2013-01-24 13:36:00,76.8,64.8,29.92,NW,325,11.0,-999.0,66,0.00,,,0.00,PyWeather,2013-01-24 23:36:00,
2013-01-24 13:41:00,77.0,65.0,29.91,NNW,329,12.0,-999.0,66,0.00,,,0.00,PyWeather,2013-01-24 23:41:00,
2013-01-24 13:44:00,77.5,65.5,29.91,NW,317,13.0,-999.0,66,0.00,,,0.00,PyWeather,2013-01-24 23:44:00,
2013-01-24 13:46:00,76.9,64.9,29.91,NNW,347,12.0,-999.0,66,0.00,,,0.00,PyWeather,2013-01-24 23:46:00,
2013-01-24 13:47:00,77.6,65.1,29.91,NNW,328,13.0,-999.0,65,0.00,,,0.00,PyWeather,2013-01-24 23:47:00,
2013-01-24 13:48:00,77.5,65.5,29.91,NW,312,13.0,-999.0,66,0.00,,,0.00,PyWeather,2013-01-24 23:48:00,
2013-01-24 13:51:00,77.2,65.6,29.91,NW,323,13.0,-999.0,67,0.00,,,0.00,PyWeather,2013-01-24 23:51:00,
2013-01-24 13:52:00,78.0,66.0,29.91,NNW,333,13.0,-999.0,66,0.00,,,0.00,PyWeather,2013-01-24 23:52:00,
2013-01-24 13:54:00,78.6,65.6,29.91,NW,323,14.0,-999.0,64,0.00,,,0.00,PyWeather,2013-01-24 23:54:00,
2013-01-24 13:55:00,78.5,65.5,29.91,NW,325,14.0,-999.0,64,0.00,,,0.00,PyWeather,2013-01-24 23:55:00,
2013-01-24 13:56:00,77.4,65.4,29.91,NW,324,13.0,-999.0,66,0.00,,,0.00,PyWeather,2013-01-24 23:56:00,
2013-01-24 13:57:00,78.6,65.6,29.91,NW,319,13.0,-999.0,64,0.00,,,0.00,PyWeather,2013-01-24 23:57:00,
2013-01-24 13:58:00,78.6,65.6,29.90,NNW,329,13.0,-999.0,64,0.00,,,0.00,PyWeather,2013-01-24 23:58:00,
2013-01-24 13:59:00,78.7,65.3,29.91,NNW,342,13.0,-999.0,63,0.00,,,0.00,PyWeather,2013-01-24 23:59:00,
2013-01-24 14:00:00,78.7,65.7,29.91,North,350,13.0,-999.0,64,0.00,,,0.00,PyWeather,2013-01-25 00:00:00,
2013-01-24 14:01:00,78.6,65.2,29.90,NNW,333,13.0,-999.0,63,0.00,,,0.00,PyWeather,2013-01-25 00:01:00,
2013-01-24 14:02:00,77.5,65.5,29.91,NW,325,13.0,-999.0,66,0.00,,,0.00,PyWeather,2013-01-25 00:02:00,
2013-01-24 14:03:00,78.5,65.1,29.91,NNW,346,13.0,-999.0,63,0.00,,,0.00,PyWeather,2013-01-25 00:03:00,
2013-01-24 14:04:00,78.5,64.6,29.91,NNW,338,13.0,-999.0,62,0.00,,,0.00,PyWeather,2013-01-25 00:04:00,
2013-01-24 14:05:00,78.5,65.1,29.91,NNW,338,12.0,-999.0,63,0.00,,,0.00,PyWeather,2013-01-25 00:05:00,
2013-01-24 14:06:00,78.6,65.2,29.91,NNW,343,12.0,-999.0,63,0.00,,,0.00,PyWeather,2013-01-25 00:06:00,
2013-01-24 14:07:00,78.5,65.5,29.91,NW,325,13.0,-999.0,64,0.00,,,0.00,PyWeather,2013-01-25 00:07:00,
2013-01-24 14:08:00,78.8,64.9,29.91,North,355,12.0,-999.0,62,0.00,,,0.00,PyWeather,2013-01-25 00:08:00,
2013-01-24 14:09:00,78.9,65.5,29.91,North,355,12.0,-999.0,63,0.00,,,0.00,PyWeather,2013-01-25 00:09:00,
2013-01-24 14:10:00,79.2,65.3,29.90,NNW,338,12.0,-999.0,62,0.00,,,0.00,PyWeather,2013-01-25 00:10:00,
2013-01-24 14:11:00,79.1,65.2,29.90,NW,323,12.0,-999.0,62,0.00,,,0.00,PyWeather,2013-01-25 00:11:00,
2013-01-24 14:12:00,78.7,65.7,29.91,North,355,13.0,-999.0,64,0.00,,,0.00,PyWeather,2013-01-25 00:12:00,
2013-01-24 14:13:00,79.0,65.1,29.90,NNW,338,12.0,-999.0,62,0.00,,,0.00,PyWeather,2013-01-25 00:13:00,
2013-01-24 14:14:00,79.3,65.4,29.90,NNW,336,12.0,-999.0,62,0.00,,,0.00,PyWeather,2013-01-25 00:14:00,
2013-01-24 14:15:00,79.4,65.0,29.90,NW,326,12.0,-999.0,61,0.00,,,0.00,PyWeather,2013-01-25 00:15:00,
2013-01-24 14:16:00,79.4,65.0,29.90,NNW,331,11.0,-999.0,61,0.00,,,0.00,PyWeather,2013-01-25 00:16:00,
2013-01-24 14:17:00,78.5,64.6,29.91,NNW,347,13.0,-999.0,62,0.00,,,0.00,PyWeather,2013-01-25 00:17:00,
2013-01-24 14:18:00,79.8,64.9,29.90,North,5,11.0,-999.0,60,0.00,,,0.00,PyWeather,2013-01-25 00:18:00,
2013-01-24 14:19:00,79.8,64.4,29.90,NNE,30,11.0,-999.0,59,0.00,,,0.00,PyWeather,2013-01-25 00:19:00,
2013-01-24 14:21:00,80.0,64.6,29.90,North,5,10.0,-999.0,59,0.00,,,0.00,PyWeather,2013-01-25 00:21:00,
2013-01-24 14:22:00,80.0,65.1,29.90,North,360,10.0,-999.0,60,0.00,,,0.00,PyWeather,2013-01-25 00:22:00,
2013-01-24 14:23:00,79.1,65.2,29.90,NNW,348,12.0,-999.0,62,0.00,,,0.00,PyWeather,2013-01-25 00:23:00,
2013-01-24 14:28:00,79.4,65.0,29.90,NNW,333,12.0,-999.0,61,0.00,,,0.00,PyWeather,2013-01-25 00:28:00,
2013-01-24 14:33:00,79.9,64.5,29.90,North,9,11.0,-999.0,59,0.00,,,0.00,PyWeather,2013-01-25 00:33:00,
2013-01-24 14:36:00,80.3,63.9,29.90,North,9,9.0,-999.0,57,0.00,,,0.00,PyWeather,2013-01-25 00:36:00,
2013-01-24 14:37:00,80.3,63.9,29.90,North,5,9.0,-999.0,57,0.00,,,0.00,PyWeather,2013-01-25 00:37:00,
2013-01-24 14:38:00,80.3,64.4,29.90,NNW,339,9.0,-999.0,58,0.00,,,0.00,PyWeather,2013-01-25 00:38:00,
2013-01-24 14:39:00,80.1,63.7,29.90,North,351,9.0,-999.0,57,0.00,,,0.00,PyWeather,2013-01-25 00:39:00,
2013-01-24 14:40:00,79.8,63.4,29.90,North,5,9.0,-999.0,57,0.00,,,0.00,PyWeather,2013-01-25 00:40:00,
2013-01-24 14:41:00,79.7,63.8,29.90,North,10,8.0,-999.0,58,0.00,,,0.00,PyWeather,2013-01-25 00:41:00,
2013-01-24 14:42:00,79.7,63.8,29.90,North,10,8.0,-999.0,58,0.00,,,0.00,PyWeather,2013-01-25 00:42:00,
2013-01-24 14:43:00,80.4,64.5,29.90,NNE,27,9.0,16.0,58,0.00,,,0.00,PyWeather,2013-01-25 00:43:00,
2013-01-24 14:44:00,79.6,63.2,29.90,NNW,337,8.0,-999.0,57,0.00,,,0.00,PyWeather,2013-01-25 00:44:00,
2013-01-24 14:46:00,79.6,63.7,29.90,NNW,330,8.0,-999.0,58,0.00,,,0.00,PyWeather,2013-01-25 00:46:00,
2013-01-24 14:47:00,79.6,63.7,29.90,NNW,332,9.0,-999.0,58,0.00,,,0.00,PyWeather,2013-01-25 00:47:00,
2013-01-24 14:48:00,80.4,64.0,29.90,NNE,24,9.0,16.0,57,0.00,,,0.00,PyWeather,2013-01-25 00:48:00,
2013-01-24 14:49:00,79.6,63.7,29.90,NNW,333,10.0,-999.0,58,0.00,,,0.00,PyWeather,2013-01-25 00:49:00,
2013-01-24 14:50:00,79.5,63.6,29.90,NW,326,10.0,-999.0,58,0.00,,,0.00,PyWeather,2013-01-25 00:50:00,
2013-01-24 14:51:00,79.4,63.6,29.90,NNW,334,11.0,-999.0,58,0.00,,,0.00,PyWeather,2013-01-25 00:51:00,
2013-01-24 14:52:00,79.4,63.6,29.90,NNW,340,12.0,-999.0,58,0.00,,,0.00,PyWeather,2013-01-25 00:52:00,
2013-01-24 14:54:00,79.8,63.4,29.90,NNE,24,9.0,-999.0,57,0.00,,,0.00,PyWeather,2013-01-25 00:54:00,
2013-01-24 14:59:00,79.6,63.7,29.90,NNW,338,8.0,-999.0,58,0.00,,,0.00,PyWeather,2013-01-25 00:59:00,
2013-01-24 15:04:00,79.4,63.6,29.90,NW,324,11.0,-999.0,58,0.00,,,0.00,PyWeather,2013-01-25 01:04:00,
2013-01-24 15:09:00,79.3,64.0,29.90,NNW,340,13.0,-999.0,59,0.00,,,0.00,PyWeather,2013-01-25 01:09:00,
2013-01-24 15:14:00,79.6,63.7,29.90,NW,314,12.0,-999.0,58,0.00,,,0.00,PyWeather,2013-01-25 01:14:00,
2013-01-24 15:19:00,79.5,64.1,29.90,North,360,11.0,-999.0,59,0.00,,,0.00,PyWeather,2013-01-25 01:19:00,
2013-01-24 15:24:00,79.9,63.5,29.90,North,9,10.0,-999.0,57,0.00,,,0.00,PyWeather,2013-01-25 01:24:00,
2013-01-24 15:29:00,80.0,63.1,29.90,NNW,341,10.0,-999.0,56,0.00,,,0.00,PyWeather,2013-01-25 01:29:00,
2013-01-24 15:34:00,79.6,63.2,29.90,NNW,327,11.0,-999.0,57,0.00,,,0.00,PyWeather,2013-01-25 01:34:00,
2013-01-24 15:38:00,80.2,63.8,29.89,NW,325,11.0,-999.0,57,0.00,,,0.00,PyWeather,2013-01-25 01:38:00,
2013-01-24 15:39:00,79.7,63.8,29.90,NW,311,12.0,-999.0,58,0.00,,,0.00,PyWeather,2013-01-25 01:39:00,
2013-01-24 15:40:00,79.9,64.0,29.90,NNW,337,11.0,-999.0,58,0.00,,,0.00,PyWeather,2013-01-25 01:40:00,
2013-01-24 15:41:00,79.8,64.4,29.90,WNW,295,11.0,-999.0,59,0.00,,,0.00,PyWeather,2013-01-25 01:41:00,
2013-01-24 15:42:00,79.6,64.2,29.89,NW,313,11.0,-999.0,59,0.00,,,0.00,PyWeather,2013-01-25 01:42:00,
2013-01-24 15:43:00,79.5,63.6,29.89,NNW,331,10.0,-999.0,58,0.00,,,0.00,PyWeather,2013-01-25 01:43:00,
2013-01-24 15:44:00,79.4,64.0,29.90,NW,309,11.0,-999.0,59,0.00,,,0.00,PyWeather,2013-01-25 01:44:00,
2013-01-24 15:48:00,79.4,63.6,29.89,North,350,11.0,-999.0,58,0.00,,,0.00,PyWeather,2013-01-25 01:48:00,
2013-01-24 15:49:00,80.0,63.6,29.89,NNW,344,11.0,-999.0,57,0.00,,,0.00,PyWeather,2013-01-25 01:49:00,
2013-01-24 15:50:00,79.4,64.0,29.89,NW,321,11.0,-999.0,59,0.00,,,0.00,PyWeather,2013-01-25 01:50:00,
2013-01-24 15:51:00,79.4,64.0,29.89,NW,311,11.0,-999.0,59,0.00,,,0.00,PyWeather,2013-01-25 01:51:00,
2013-01-24 15:52:00,79.4,64.0,29.89,NNW,329,12.0,-999.0,59,0.00,,,0.00,PyWeather,2013-01-25 01:52:00,
2013-01-24 15:53:00,79.4,63.6,29.89,NNW,333,12.0,-999.0,58,0.00,,,0.00,PyWeather,2013-01-25 01:53:00,
2013-01-24 15:54:00,79.8,64.4,29.90,NW,306,11.0,-999.0,59,0.00,,,0.00,PyWeather,2013-01-25 01:54:00,
2013-01-24 15:55:00,79.3,64.0,29.90,NW,304,13.0,-999.0,59,0.00,,,0.00,PyWeather,2013-01-25 01:55:00,
2013-01-24 15:56:00,79.2,63.9,29.90,WNW,293,13.0,-999.0,59,0.00,,,0.00,PyWeather,2013-01-25 01:56:00,
2013-01-24 15:57:00,79.1,64.3,29.90,NW,313,13.0,-999.0,60,0.00,,,0.00,PyWeather,2013-01-25 01:57:00,
2013-01-24 15:58:00,78.8,64.4,29.90,NW,312,14.0,-999.0,61,0.00,,,0.00,PyWeather,2013-01-25 01:58:00,
2013-01-24 15:59:00,79.4,63.6,29.89,NNW,344,10.0,-999.0,58,0.00,,,0.00,PyWeather,2013-01-25 01:59:00,
2013-01-24 16:01:00,78.4,64.5,29.89,NW,309,14.0,-999.0,62,0.00,,,0.00,PyWeather,2013-01-25 02:01:00,
2013-01-24 16:02:00,78.1,64.7,29.89,NW,321,14.0,-999.0,63,0.00,,,0.00,PyWeather,2013-01-25 02:02:00,
2013-01-24 16:04:00,79.4,64.0,29.89,NW,319,11.0,-999.0,59,0.00,,,0.00,PyWeather,2013-01-25 02:04:00,
2013-01-24 16:05:00,77.2,64.8,29.90,NW,319,16.0,23.0,65,0.00,,,0.00,PyWeather,2013-01-25 02:05:00,
2013-01-24 16:06:00,77.2,65.2,29.90,NNW,329,16.0,23.0,66,0.00,,,0.00,PyWeather,2013-01-25 02:06:00,
2013-01-24 16:09:00,79.3,64.0,29.90,NW,318,13.0,-999.0,59,0.00,,,0.00,PyWeather,2013-01-25 02:09:00,
2013-01-24 16:10:00,77.1,65.1,29.90,NNW,329,17.0,23.0,66,0.00,,,0.00,PyWeather,2013-01-25 02:10:00,
2013-01-24 16:11:00,77.0,65.0,29.90,NW,306,17.0,23.0,66,0.00,,,0.00,PyWeather,2013-01-25 02:11:00,
2013-01-24 16:12:00,76.9,64.9,29.90,WNW,303,17.0,23.0,66,0.00,,,0.00,PyWeather,2013-01-25 02:12:00,
2013-01-24 16:13:00,77.0,65.4,29.90,NW,304,16.0,23.0,67,0.00,,,0.00,PyWeather,2013-01-25 02:13:00,
2013-01-24 16:14:00,78.5,64.6,29.89,NW,306,14.0,-999.0,62,0.00,,,0.00,PyWeather,2013-01-25 02:14:00,
2013-01-24 16:15:00,77.4,65.4,29.90,NW,322,15.0,22.0,66,0.00,,,0.00,PyWeather,2013-01-25 02:15:00,
2013-01-24 16:17:00,77.3,65.3,29.90,NW,311,15.0,22.0,66,0.00,,,0.00,PyWeather,2013-01-25 02:17:00,
2013-01-24 16:18:00,77.3,65.3,29.90,NW,310,15.0,22.0,66,0.00,,,0.00,PyWeather,2013-01-25 02:18:00,
2013-01-24 16:19:00,77.2,65.2,29.90,NW,313,16.0,23.0,66,0.00,,,0.00,PyWeather,2013-01-25 02:19:00,
2013-01-24 16:20:00,77.2,65.2,29.90,NW,315,15.0,22.0,66,0.00,,,0.00,PyWeather,2013-01-25 02:20:00,
2013-01-24 16:21:00,77.1,65.5,29.90,NNW,335,15.0,22.0,67,0.00,,,0.00,PyWeather,2013-01-25 02:21:00,
2013-01-24 16:22:00,77.1,65.5,29.90,WNW,302,14.0,22.0,67,0.00,,,0.00,PyWeather,2013-01-25 02:22:00,
2013-01-24 16:23:00,77.0,65.4,29.90,NW,304,15.0,22.0,67,0.00,,,0.00,PyWeather,2013-01-25 02:23:00,
2013-01-24 16:24:00,77.0,65.0,29.90,NW,322,17.0,23.0,66,0.00,,,0.00,PyWeather,2013-01-25 02:24:00,
2013-01-24 16:25:00,76.4,64.9,29.90,NW,306,16.0,22.0,67,0.00,,,0.00,PyWeather,2013-01-25 02:25:00,
2013-01-24 16:26:00,76.1,65.4,29.90,NNW,339,16.0,-999.0,69,0.00,,,0.00,PyWeather,2013-01-25 02:26:00,
2013-01-24 16:27:00,76.0,65.3,29.91,NNW,333,16.0,-999.0,69,0.00,,,0.00,PyWeather,2013-01-25 02:27:00,
2013-01-24 16:28:00,75.9,64.8,29.90,NW,321,16.0,-999.0,68,0.00,,,0.00,PyWeather,2013-01-25 02:28:00,
2013-01-24 16:29:00,77.4,65.4,29.90,NW,310,15.0,22.0,66,0.00,,,0.00,PyWeather,2013-01-25 02:29:00,
2013-01-24 16:30:00,75.7,65.0,29.91,NW,319,16.0,-999.0,69,0.00,,,0.00,PyWeather,2013-01-25 02:30:00,
2013-01-24 16:31:00,75.6,64.9,29.91,NNW,327,16.0,-999.0,69,0.00,,,0.00,PyWeather,2013-01-25 02:31:00,
2013-01-24 16:32:00,75.6,64.9,29.91,NW,317,16.0,-999.0,69,0.00,,,0.00,PyWeather,2013-01-25 02:32:00,
2013-01-24 16:33:00,75.5,65.2,29.91,NW,317,16.0,-999.0,70,0.00,,,0.00,PyWeather,2013-01-25 02:33:00,
2013-01-24 16:34:00,75.5,65.2,29.91,NW,323,16.0,-999.0,70,0.00,,,0.00,PyWeather,2013-01-25 02:34:00,
2013-01-24 16:35:00,77.1,65.5,29.90,WNW,295,15.0,22.0,67,0.00,,,0.00,PyWeather,2013-01-25 02:35:00,
2013-01-24 16:37:00,75.5,65.2,29.91,NW,321,15.0,-999.0,70,0.00,,,0.00,PyWeather,2013-01-25 02:37:00,
2013-01-24 16:38:00,75.6,65.3,29.91,NNW,329,14.0,-999.0,70,0.00,,,0.00,PyWeather,2013-01-25 02:38:00,
2013-01-24 16:39:00,75.6,65.3,29.91,NW,315,14.0,-999.0,70,0.00,,,0.00,PyWeather,2013-01-25 02:39:00,
2013-01-24 16:40:00,76.1,65.4,29.91,NW,310,16.0,-999.0,69,0.00,,,0.00,PyWeather,2013-01-25 02:40:00,
2013-01-24 16:41:00,75.6,65.3,29.91,NNW,336,14.0,-999.0,70,0.00,,,0.00,PyWeather,2013-01-25 02:41:00,
2013-01-24 16:42:00,75.5,65.2,29.91,NW,317,14.0,-999.0,70,0.00,,,0.00,PyWeather,2013-01-25 02:42:00,
2013-01-24 16:43:00,75.5,65.2,29.91,NW,324,14.0,-999.0,70,0.00,,,0.00,PyWeather,2013-01-25 02:43:00,
2013-01-24 16:44:00,75.5,65.2,29.91,NW,314,14.0,-999.0,70,0.00,,,0.00,PyWeather,2013-01-25 02:44:00,
2013-01-24 16:45:00,75.6,64.9,29.91,NW,321,16.0,-999.0,69,0.00,,,0.00,PyWeather,2013-01-25 02:45:00,
2013-01-24 16:46:00,75.5,65.2,29.91,NW,319,14.0,-999.0,70,0.00,,,0.00,PyWeather,2013-01-25 02:46:00,
2013-01-24 16:47:00,75.5,65.2,29.91,NW,318,13.0,-999.0,70,0.00,,,0.00,PyWeather,2013-01-25 02:47:00,
2013-01-24 16:49:00,75.4,65.1,29.91,NW,309,13.0,-999.0,70,0.00,,,0.00,PyWeather,2013-01-25 02:49:00,
2013-01-24 16:50:00,75.5,65.2,29.91,NNW,331,15.0,-999.0,70,0.00,,,0.00,PyWeather,2013-01-25 02:50:00,
2013-01-24 16:51:00,75.4,65.1,29.91,NNW,327,13.0,-999.0,70,0.00,,,0.00,PyWeather,2013-01-25 02:51:00,
2013-01-24 16:52:00,75.3,65.0,29.91,NW,324,13.0,-999.0,70,0.00,,,0.00,PyWeather,2013-01-25 02:52:00,
2013-01-24 16:53:00,75.3,65.0,29.91,NNW,328,13.0,-999.0,70,0.00,,,0.00,PyWeather,2013-01-25 02:53:00,
2013-01-24 16:54:00,75.2,64.9,29.91,NW,313,13.0,-999.0,70,0.00,,,0.00,PyWeather,2013-01-25 02:54:00,
2013-01-24 16:55:00,75.5,65.2,29.91,NW,315,14.0,-999.0,70,0.00,,,0.00,PyWeather,2013-01-25 02:55:00,
2013-01-24 16:58:00,74.9,65.1,29.91,NNW,327,14.0,-999.0,71,0.00,,,0.00,PyWeather,2013-01-25 02:58:00,
2013-01-24 17:00:00,75.5,65.2,29.91,NW,317,14.0,-999.0,70,0.00,,,0.00,PyWeather,2013-01-25 03:00:00,
2013-01-24 17:02:00,75.1,64.8,29.91,NW,321,14.0,-999.0,70,0.00,,,0.00,PyWeather,2013-01-25 03:02:00,
2013-01-24 17:03:00,75.2,64.9,29.92,NW,310,13.0,-999.0,70,0.00,,,0.00,PyWeather,2013-01-25 03:03:00,
2013-01-24 17:05:00,75.2,64.9,29.91,NW,312,13.0,-999.0,70,0.00,,,0.00,PyWeather,2013-01-25 03:05:00,
2013-01-24 17:06:00,75.3,65.0,29.91,NW,317,13.0,-999.0,70,0.00,,,0.00,PyWeather,2013-01-25 03:06:00,
2013-01-24 17:08:00,75.3,64.6,29.91,WNW,292,12.0,-999.0,69,0.00,,,0.00,PyWeather,2013-01-25 03:08:00,
2013-01-24 17:09:00,75.3,64.6,29.91,NW,313,12.0,-999.0,69,0.00,,,0.00,PyWeather,2013-01-25 03:09:00,
2013-01-24 17:10:00,75.3,64.6,29.92,NNW,333,12.0,-999.0,69,0.00,,,0.00,PyWeather,2013-01-25 03:10:00,
2013-01-24 17:11:00,74.9,64.7,29.91,NNW,328,14.0,-999.0,70,0.00,,,0.00,PyWeather,2013-01-25 03:11:00,
2013-01-24 17:14:00,75.2,64.5,29.92,NW,323,13.0,-999.0,69,0.00,,,0.00,PyWeather,2013-01-25 03:14:00,
2013-01-24 17:15:00,75.1,64.4,29.92,NW,311,12.0,-999.0,69,0.00,,,0.00,PyWeather,2013-01-25 03:15:00,
2013-01-24 17:16:00,75.1,64.8,29.92,NW,317,14.0,-999.0,70,0.00,,,0.00,PyWeather,2013-01-25 03:16:00,
2013-01-24 17:17:00,75.1,64.4,29.92,WNW,302,12.0,-999.0,69,0.00,,,0.00,PyWeather,2013-01-25 03:17:00,
2013-01-24 17:18:00,75.0,64.3,29.92,WNW,301,12.0,-999.0,69,0.00,,,0.00,PyWeather,2013-01-25 03:18:00,
2013-01-24 17:19:00,74.9,64.2,29.92,WNW,303,13.0,-999.0,69,0.00,,,0.00,PyWeather,2013-01-25 03:19:00,
2013-01-24 17:20:00,74.9,64.2,29.92,WNW,300,13.0,-999.0,69,0.00,,,0.00,PyWeather,2013-01-25 03:20:00,
2013-01-24 17:21:00,75.3,64.6,29.92,WNW,294,12.0,-999.0,69,0.00,,,0.00,PyWeather,2013-01-25 03:21:00,
2013-01-24 17:22:00,74.9,64.2,29.92,NW,309,12.0,-999.0,69,0.00,,,0.00,PyWeather,2013-01-25 03:22:00,
2013-01-24 17:23:00,74.9,64.2,29.92,NW,312,12.0,-999.0,69,0.00,,,0.00,PyWeather,2013-01-25 03:23:00,
2013-01-24 17:24:00,74.9,64.2,29.92,NW,323,12.0,-999.0,69,0.00,,,0.00,PyWeather,2013-01-25 03:24:00,
2013-01-24 17:25:00,74.8,64.6,29.92,NNW,331,12.0,-999.0,70,0.00,,,0.00,PyWeather,2013-01-25 03:25:00,
2013-01-24 17:26:00,75.2,64.5,29.92,NW,309,12.0,-999.0,69,0.00,,,0.00,PyWeather,2013-01-25 03:26:00,
2013-01-24 17:27:00,74.7,64.5,29.92,NW,313,12.0,-999.0,70,0.00,,,0.00,PyWeather,2013-01-25 03:27:00,
2013-01-24 17:28:00,74.7,64.5,29.92,NW,322,12.0,-999.0,70,0.00,,,0.00,PyWeather,2013-01-25 03:28:00,
2013-01-24 17:29:00,74.7,64.5,29.92,NW,319,12.0,-999.0,70,0.00,,,0.00,PyWeather,2013-01-25 03:29:00,
2013-01-24 17:30:00,74.7,64.5,29.92,NW,324,12.0,-999.0,70,0.00,,,0.00,PyWeather,2013-01-25 03:30:00,
2013-01-24 17:31:00,74.6,64.4,29.92,NNW,327,11.0,-999.0,70,0.00,,,0.00,PyWeather,2013-01-25 03:31:00,
2013-01-24 17:32:00,75.0,64.3,29.92,NW,319,12.0,-999.0,69,0.00,,,0.00,PyWeather,2013-01-25 03:32:00,
2013-01-24 17:33:00,74.5,64.3,29.92,NW,312,12.0,-999.0,70,0.00,,,0.00,PyWeather,2013-01-25 03:33:00,
2013-01-24 17:35:00,74.5,64.3,29.92,NNW,329,11.0,-999.0,70,0.00,,,0.00,PyWeather,2013-01-25 03:35:00,
2013-01-24 17:36:00,74.4,64.2,29.92,NW,311,11.0,-999.0,70,0.00,,,0.00,PyWeather,2013-01-25 03:36:00,
2013-01-24 17:37:00,74.9,64.2,29.92,NW,309,12.0,-999.0,69,0.00,,,0.00,PyWeather,2013-01-25 03:37:00,
2013-01-24 17:38:00,74.4,64.2,29.92,NW,305,12.0,-999.0,70,0.00,,,0.00,PyWeather,2013-01-25 03:38:00,
2013-01-24 17:39:00,74.4,64.2,29.92,NW,313,11.0,-999.0,70,0.00,,,0.00,PyWeather,2013-01-25 03:39:00,
2013-01-24 17:40:00,74.3,64.1,29.92,NNW,329,11.0,-999.0,70,0.00,,,0.00,PyWeather,2013-01-25 03:40:00,
2013-01-24 17:42:00,74.7,64.5,29.92,NNW,332,12.0,-999.0,70,0.00,,,0.00,PyWeather,2013-01-25 03:42:00,
2013-01-24 17:43:00,74.1,64.3,29.93,NW,323,11.0,-999.0,71,0.00,,,0.00,PyWeather,2013-01-25 03:43:00,
2013-01-24 17:44:00,74.1,64.3,29.93,NW,325,11.0,-999.0,71,0.00,,,0.00,PyWeather,2013-01-25 03:44:00,
2013-01-24 17:45:00,74.1,64.3,29.93,NNW,327,11.0,-999.0,71,0.00,,,0.00,PyWeather,2013-01-25 03:45:00,
2013-01-24 17:46:00,74.0,64.2,29.93,NNW,328,11.0,-999.0,71,0.00,,,0.00,PyWeather,2013-01-25 03:46:00,
2013-01-24 17:47:00,74.5,64.3,29.92,NNW,331,12.0,-999.0,70,0.00,,,0.00,PyWeather,2013-01-25 03:47:00,
2013-01-24 17:50:00,73.8,64.0,29.93,NNW,335,10.0,-999.0,71,0.00,,,0.00,PyWeather,2013-01-25 03:50:00,
2013-01-24 17:52:00,74.4,64.2,29.92,NW,313,11.0,-999.0,70,0.00,,,0.00,PyWeather,2013-01-25 03:52:00,
2013-01-24 17:53:00,73.7,63.9,29.93,NNW,345,10.0,-999.0,71,0.00,,,0.00,PyWeather,2013-01-25 03:53:00,
2013-01-24 17:54:00,73.7,63.9,29.93,NNW,333,9.0,-999.0,71,0.00,,,0.00,PyWeather,2013-01-25 03:54:00,
2013-01-24 17:55:00,73.7,63.9,29.93,NNW,327,9.0,-999.0,71,0.00,,,0.00,PyWeather,2013-01-25 03:55:00,
2013-01-24 17:56:00,73.7,63.9,29.93,NNW,340,9.0,-999.0,71,0.00,,,0.00,PyWeather,2013-01-25 03:56:00,
2013-01-24 17:57:00,73.6,63.8,29.93,NNW,342,10.0,-999.0,71,0.00,,,0.00,PyWeather,2013-01-25 03:57:00,
2013-01-24 17:58:00,74.1,64.3,29.93,NNW,327,11.0,-999.0,71,0.00,,,0.00,PyWeather,2013-01-25 03:58:00,
2013-01-24 17:59:00,73.6,63.8,29.93,NNW,327,10.0,-999.0,71,0.00,,,0.00,PyWeather,2013-01-25 03:59:00,
2013-01-24 18:00:00,73.6,63.8,29.93,NW,319,9.0,-999.0,71,0.00,,,0.00,PyWeather,2013-01-25 04:00:00,
2013-01-24 18:01:00,73.6,63.8,29.93,NNW,327,9.0,-999.0,71,0.00,,,0.00,PyWeather,2013-01-25 04:01:00,
2013-01-24 18:02:00,73.9,64.1,29.93,NNW,335,10.0,-999.0,71,0.00,,,0.00,PyWeather,2013-01-25 04:02:00,
2013-01-24 18:03:00,73.5,64.1,29.93,NW,320,8.0,-999.0,72,0.00,,,0.00,PyWeather,2013-01-25 04:03:00,
2013-01-24 18:04:00,73.5,64.1,29.93,NNW,328,8.0,-999.0,72,0.00,,,0.00,PyWeather,2013-01-25 04:04:00,
2013-01-24 18:06:00,73.4,64.0,29.93,NW,324,8.0,17.0,72,0.00,,,0.00,PyWeather,2013-01-25 04:06:00,
2013-01-24 18:07:00,73.4,64.0,29.93,NNW,328,8.0,17.0,72,0.00,,,0.00,PyWeather,2013-01-25 04:07:00,
2013-01-24 18:08:00,73.7,63.9,29.93,NNW,333,9.0,-999.0,71,0.00,,,0.00,PyWeather,2013-01-25 04:08:00,
2013-01-24 18:09:00,73.4,64.0,29.94,NNW,328,7.0,17.0,72,0.00,,,0.00,PyWeather,2013-01-25 04:09:00,
2013-01-24 18:11:00,73.3,63.9,29.94,NNW,328,6.0,17.0,72,0.00,,,0.00,PyWeather,2013-01-25 04:11:00,
2013-01-24 18:12:00,73.3,63.9,29.94,NNW,328,6.0,17.0,72,0.00,,,0.00,PyWeather,2013-01-25 04:12:00,
2013-01-24 18:13:00,73.6,63.8,29.93,WNW,298,10.0,-999.0,71,0.00,,,0.00,PyWeather,2013-01-25 04:13:00,
2013-01-24 18:14:00,73.2,63.8,29.94,NNW,339,5.0,17.0,72,0.00,,,0.00,PyWeather,2013-01-25 04:14:00,
2013-01-24 18:16:00,73.1,63.7,29.94,NNW,345,5.0,-999.0,72,0.00,,,0.00,PyWeather,2013-01-25 04:16:00,
2013-01-24 18:18:00,73.5,64.1,29.93,NNW,331,8.0,-999.0,72,0.00,,,0.00,PyWeather,2013-01-25 04:18:00,
2013-01-24 18:19:00,73.1,63.7,29.94,NNW,332,5.0,-999.0,72,0.00,,,0.00,PyWeather,2013-01-25 04:19:00,
2013-01-24 18:20:00,73.1,63.7,29.94,NNW,348,5.0,-999.0,72,0.00,,,0.00,PyWeather,2013-01-25 04:20:00,
2013-01-24 18:21:00,73.1,63.7,29.94,NNW,344,5.0,-999.0,72,0.00,,,0.00,PyWeather,2013-01-25 04:21:00,
2013-01-24 18:22:00,73.1,63.7,29.94,NNW,336,6.0,-999.0,72,0.00,,,0.00,PyWeather,2013-01-25 04:22:00,
2013-01-24 18:23:00,73.3,63.9,29.94,NNW,328,7.0,17.0,72,0.00,,,0.00,PyWeather,2013-01-25 04:23:00,
2013-01-24 18:24:00,73.1,63.7,29.94,North,349,7.0,-999.0,72,0.00,,,0.00,PyWeather,2013-01-25 04:24:00,
2013-01-24 18:25:00,73.2,63.8,29.94,North,349,7.0,-999.0,72,0.00,,,0.00,PyWeather,2013-01-25 04:25:00,
2013-01-24 18:26:00,73.2,63.8,29.94,North,350,6.0,-999.0,72,0.00,,,0.00,PyWeather,2013-01-25 04:26:00,
2013-01-24 18:28:00,73.2,63.8,29.94,NNW,339,5.0,17.0,72,0.00,,,0.00,PyWeather,2013-01-25 04:28:00,
2013-01-24 18:29:00,73.2,63.8,29.95,NNW,333,4.0,-999.0,72,0.00,,,0.00,PyWeather,2013-01-25 04:29:00,
2013-01-24 18:30:00,73.2,63.8,29.95,NNW,333,3.0,-999.0,72,0.00,,,0.00,PyWeather,2013-01-25 04:30:00,
2013-01-24 18:31:00,73.2,63.8,29.94,NNW,333,3.0,-999.0,72,0.00,,,0.00,PyWeather,2013-01-25 04:31:00,
2013-01-24 18:33:00,73.1,63.7,29.94,North,349,5.0,-999.0,72,0.00,,,0.00,PyWeather,2013-01-25 04:33:00,
2013-01-24 18:35:00,73.1,63.7,29.95,NNW,333,1.0,-999.0,72,0.00,,,0.00,PyWeather,2013-01-25 04:35:00,
2013-01-24 18:36:00,73.2,63.8,29.95,NNW,333,1.0,-999.0,72,0.00,,,0.00,PyWeather,2013-01-25 04:36:00,
2013-01-24 18:37:00,73.1,63.7,29.94,NNW,333,1.0,-999.0,72,0.00,,,0.00,PyWeather,2013-01-25 04:37:00,
2013-01-24 18:38:00,73.1,63.7,29.95,NNW,332,0.0,-999.0,72,0.00,,,0.00,PyWeather,2013-01-25 04:38:00,
2013-01-24 18:39:00,73.2,63.8,29.94,North,350,6.0,-999.0,72,0.00,,,0.00,PyWeather,2013-01-25 04:39:00,
2013-01-24 18:41:00,73.1,63.7,29.95,NNW,333,0.0,-999.0,72,0.00,,,0.00,PyWeather,2013-01-25 04:41:00,
2013-01-24 18:44:00,73.2,63.8,29.95,NNW,332,3.0,-999.0,72,0.00,,,0.00,PyWeather,2013-01-25 04:44:00,
2013-01-24 18:45:00,73.1,63.7,29.95,NNW,333,1.0,-999.0,72,0.00,,,0.00,PyWeather,2013-01-25 04:45:00,
2013-01-24 18:47:00,73.0,63.6,29.95,ESE,118,1.0,-999.0,72,0.00,,,0.00,PyWeather,2013-01-25 04:47:00,
2013-01-24 18:49:00,72.9,63.5,29.95,ESE,118,1.0,-999.0,72,0.00,,,0.00,PyWeather,2013-01-25 04:49:00,
2013-01-24 18:50:00,73.1,63.7,29.94,NNW,333,1.0,-999.0,72,0.00,,,0.00,PyWeather,2013-01-25 04:50:00,
2013-01-24 18:51:00,72.7,63.3,29.95,ESE,118,2.0,-999.0,72,0.00,,,0.00,PyWeather,2013-01-25 04:51:00,
2013-01-24 18:52:00,72.6,63.2,29.95,ESE,119,2.0,-999.0,72,0.00,,,0.00,PyWeather,2013-01-25 04:52:00,
2013-01-24 18:53:00,72.5,63.5,29.95,ESE,119,3.0,-999.0,73,0.00,,,0.00,PyWeather,2013-01-25 04:53:00,
2013-01-24 18:54:00,72.4,63.4,29.95,ESE,119,3.0,-999.0,73,0.00,,,0.00,PyWeather,2013-01-25 04:54:00,
2013-01-24 18:55:00,73.1,63.7,29.95,NNW,332,0.0,-999.0,72,0.00,,,0.00,PyWeather,2013-01-25 04:55:00,
2013-01-24 18:56:00,72.3,63.3,29.95,ESE,118,3.0,-999.0,73,0.00,,,0.00,PyWeather,2013-01-25 04:56:00,
2013-01-24 18:57:00,72.2,63.2,29.95,ESE,118,3.0,-999.0,73,0.00,,,0.00,PyWeather,2013-01-25 04:57:00,
2013-01-24 18:58:00,72.1,63.1,29.95,ESE,118,3.0,-999.0,73,0.00,,,0.00,PyWeather,2013-01-25 04:58:00,
2013-01-24 18:59:00,72.1,63.1,29.95,ESE,118,3.0,-999.0,73,0.00,,,0.00,PyWeather,2013-01-25 04:59:00,
2013-01-24 19:00:00,72.0,63.4,29.95,ESE,118,3.0,-999.0,74,0.00,,,0.00,PyWeather,2013-01-25 05:00:00,
2013-01-24 19:01:00,72.0,63.4,29.95,ESE,118,3.0,-999.0,74,0.00,,,0.00,PyWeather,2013-01-25 05:01:00,
2013-01-24 19:02:00,71.9,63.3,29.95,ESE,119,3.0,-999.0,74,0.00,,,0.00,PyWeather,2013-01-25 05:02:00,
2013-01-24 19:03:00,71.9,63.3,29.95,ESE,118,3.0,-999.0,74,0.00,,,0.00,PyWeather,2013-01-25 05:03:00,
2013-01-24 19:04:00,71.8,63.2,29.95,ESE,118,3.0,-999.0,74,0.00,,,0.00,PyWeather,2013-01-25 05:04:00,
2013-01-24 19:05:00,71.8,63.2,29.95,ESE,117,3.0,-999.0,74,0.00,,,0.00,PyWeather,2013-01-25 05:05:00,
2013-01-24 19:06:00,71.8,63.2,29.95,ESE,118,3.0,-999.0,74,0.00,,,0.00,PyWeather,2013-01-25 05:06:00,
2013-01-24 19:07:00,71.7,63.1,29.95,ESE,118,3.0,-999.0,74,0.00,,,0.00,PyWeather,2013-01-25 05:07:00,
2013-01-24 19:08:00,71.7,63.1,29.95,ESE,118,3.0,-999.0,74,0.00,,,0.00,PyWeather,2013-01-25 05:08:00,
2013-01-24 19:09:00,71.7,63.1,29.95,ESE,119,3.0,-999.0,74,0.00,,,0.00,PyWeather,2013-01-25 05:09:00,
2013-01-24 19:10:00,71.6,63.0,29.95,ESE,118,3.0,-999.0,74,0.00,,,0.00,PyWeather,2013-01-25 05:10:00,
2013-01-24 19:11:00,71.6,63.0,29.95,ESE,119,3.0,-999.0,74,0.00,,,0.00,PyWeather,2013-01-25 05:11:00,
2013-01-24 19:12:00,71.6,63.0,29.95,ESE,119,3.0,-999.0,74,0.00,,,0.00,PyWeather,2013-01-25 05:12:00,
2013-01-24 19:14:00,71.5,62.9,29.96,ESE,119,4.0,-999.0,74,0.00,,,0.00,PyWeather,2013-01-25 05:14:00,
2013-01-24 19:21:00,71.7,63.1,29.95,ESE,118,3.0,-999.0,74,0.00,,,0.00,PyWeather,2013-01-25 05:21:00,
2013-01-24 19:26:00,71.6,63.0,29.95,ESE,118,4.0,-999.0,74,0.00,,,0.00,PyWeather,2013-01-25 05:26:00,
2013-01-24 19:32:00,71.3,62.7,29.96,ESE,118,2.0,-999.0,74,0.00,,,0.00,PyWeather,2013-01-25 05:32:00,
2013-01-24 19:37:00,71.2,62.6,29.96,ESE,118,1.0,-999.0,74,0.00,,,0.00,PyWeather,2013-01-25 05:37:00,
2013-01-24 19:42:00,71.0,62.8,29.96,ENE,75,3.0,-999.0,75,0.00,,,0.00,PyWeather,2013-01-25 05:42:00,
2013-01-24 19:47:00,70.8,62.6,29.96,ENE,75,4.0,-999.0,75,0.00,,,0.00,PyWeather,2013-01-25 05:47:00,
2013-01-24 19:49:00,70.4,62.6,29.97,ENE,78,4.0,-999.0,76,0.00,,,0.00,PyWeather,2013-01-25 05:49:00,
2013-01-24 19:50:00,70.4,62.6,29.96,ENE,76,4.0,-999.0,76,0.00,,,0.00,PyWeather,2013-01-25 05:50:00,
2013-01-24 19:51:00,70.4,62.6,29.96,ENE,76,4.0,-999.0,76,0.00,,,0.00,PyWeather,2013-01-25 05:51:00,
2013-01-24 19:52:00,70.6,62.4,29.96,ENE,77,4.0,-999.0,75,0.00,,,0.00,PyWeather,2013-01-25 05:52:00,
2013-01-24 19:53:00,70.2,62.4,29.97,ENE,76,4.0,-999.0,76,0.00,,,0.00,PyWeather,2013-01-25 05:53:00,
2013-01-24 19:54:00,70.2,62.4,29.97,ENE,76,4.0,-999.0,76,0.00,,,0.00,PyWeather,2013-01-25 05:54:00,
2013-01-24 19:55:00,70.1,62.3,29.97,ENE,76,4.0,-999.0,76,0.00,,,0.00,PyWeather,2013-01-25 05:55:00,
2013-01-24 19:56:00,70.1,62.3,29.97,ENE,76,4.0,-999.0,76,0.00,,,0.00,PyWeather,2013-01-25 05:56:00,
2013-01-24 19:57:00,70.5,62.7,29.97,East,82,3.0,-999.0,76,0.00,,,0.00,PyWeather,2013-01-25 05:57:00,
2013-01-24 19:58:00,70.0,62.6,29.97,East,83,4.0,-999.0,77,0.00,,,0.00,PyWeather,2013-01-25 05:58:00,
2013-01-24 20:01:00,69.9,62.5,29.97,ENE,76,4.0,-999.0,77,0.00,,,0.00,PyWeather,2013-01-25 06:01:00,
2013-01-24 20:02:00,70.4,62.6,29.96,East,80,3.0,-999.0,76,0.00,,,0.00,PyWeather,2013-01-25 06:02:00,
2013-01-24 20:03:00,69.8,62.4,29.97,ENE,76,4.0,-999.0,77,0.00,,,0.00,PyWeather,2013-01-25 06:03:00,
2013-01-24 20:04:00,69.7,62.3,29.97,ENE,77,4.0,-999.0,77,0.00,,,0.00,PyWeather,2013-01-25 06:04:00,
2013-01-24 20:05:00,69.7,62.3,29.97,ENE,76,4.0,-999.0,77,0.00,,,0.00,PyWeather,2013-01-25 06:05:00,
2013-01-24 20:06:00,69.7,62.3,29.97,ENE,77,4.0,-999.0,77,0.00,,,0.00,PyWeather,2013-01-25 06:06:00,
2013-01-24 20:07:00,70.2,62.4,29.97,ENE,76,4.0,-999.0,76,0.00,,,0.00,PyWeather,2013-01-25 06:07:00,
2013-01-24 20:09:00,69.5,62.1,29.97,ENE,76,3.0,-999.0,77,0.00,,,0.00,PyWeather,2013-01-25 06:09:00,
2013-01-24 20:12:00,70.0,62.6,29.97,ENE,78,4.0,-999.0,77,0.00,,,0.00,PyWeather,2013-01-25 06:12:00,
2013-01-24 20:17:00,69.8,62.4,29.97,ENE,76,4.0,-999.0,77,0.00,,,0.00,PyWeather,2013-01-25 06:17:00,
2013-01-24 20:22:00,69.6,62.2,29.97,ENE,76,3.0,-999.0,77,0.00,,,0.00,PyWeather,2013-01-25 06:22:00,
2013-01-24 20:27:00,69.4,62.3,29.97,ENE,77,3.0,-999.0,78,0.00,,,0.00,PyWeather,2013-01-25 06:27:00,
2013-01-24 20:32:00,69.3,62.6,29.97,ENE,76,3.0,-999.0,79,0.00,,,0.00,PyWeather,2013-01-25 06:32:00,
2013-01-24 20:37:00,69.3,62.6,29.97,ENE,76,1.0,-999.0,79,0.00,,,0.00,PyWeather,2013-01-25 06:37:00,
2013-01-24 20:42:00,69.2,62.5,29.97,ENE,76,0.0,-999.0,79,0.00,,,0.00,PyWeather,2013-01-25 06:42:00,
2013-01-24 20:47:00,68.4,61.7,29.97,ENE,76,1.0,-999.0,79,0.00,,,0.00,PyWeather,2013-01-25 06:47:00,
2013-01-24 20:52:00,67.8,61.8,29.97,ENE,77,2.0,-999.0,81,0.00,,,0.00,PyWeather,2013-01-25 06:52:00,
2013-01-24 20:53:00,67.7,62.4,29.97,ENE,76,2.0,-999.0,83,0.00,,,0.00,PyWeather,2013-01-25 06:53:00,
2013-01-24 20:55:00,67.7,62.4,29.97,ENE,76,2.0,-999.0,83,0.00,,,0.00,PyWeather,2013-01-25 06:55:00,
2013-01-24 20:57:00,67.7,62.1,29.97,ENE,76,2.0,-999.0,82,0.00,,,0.00,PyWeather,2013-01-25 06:57:00,
2013-01-24 21:00:00,67.3,61.7,29.97,ENE,77,1.0,-999.0,82,0.00,,,0.00,PyWeather,2013-01-25 07:00:00,
2013-01-24 21:01:00,67.2,61.6,29.97,ENE,76,1.0,-999.0,82,0.00,,,0.00,PyWeather,2013-01-25 07:01:00,
2013-01-24 21:02:00,67.7,62.4,29.97,ENE,76,2.0,-999.0,83,0.00,,,0.00,PyWeather,2013-01-25 07:02:00,
2013-01-24 21:03:00,67.1,61.5,29.97,ENE,76,1.0,-999.0,82,0.00,,,0.00,PyWeather,2013-01-25 07:03:00,
2013-01-24 21:05:00,67.1,61.8,29.97,ENE,76,1.0,-999.0,83,0.00,,,0.00,PyWeather,2013-01-25 07:05:00,
2013-01-24 21:07:00,67.7,62.4,29.97,ENE,76,2.0,-999.0,83,0.00,,,0.00,PyWeather,2013-01-25 07:07:00,
2013-01-24 21:08:00,67.0,61.7,29.97,ENE,77,1.0,-999.0,83,0.00,,,0.00,PyWeather,2013-01-25 07:08:00,
2013-01-24 21:09:00,67.0,61.7,29.97,ENE,76,1.0,-999.0,83,0.00,,,0.00,PyWeather,2013-01-25 07:09:00,
2013-01-24 21:10:00,67.0,61.7,29.97,ENE,76,1.0,-999.0,83,0.00,,,0.00,PyWeather,2013-01-25 07:10:00,
2013-01-24 21:12:00,67.5,61.9,29.97,ENE,76,1.0,-999.0,82,0.00,,,0.00,PyWeather,2013-01-25 07:12:00,
2013-01-24 21:17:00,67.1,61.5,29.97,ENE,76,1.0,-999.0,82,0.00,,,0.00,PyWeather,2013-01-25 07:17:00,
2013-01-24 21:22:00,67.0,61.7,29.97,ENE,76,1.0,-999.0,83,0.00,,,0.00,PyWeather,2013-01-25 07:22:00,
2013-01-24 21:27:00,66.8,61.5,29.97,ENE,76,1.0,-999.0,83,0.00,,,0.00,PyWeather,2013-01-25 07:27:00,
2013-01-24 21:32:00,66.6,61.0,29.97,ENE,76,1.0,-999.0,82,0.00,,,0.00,PyWeather,2013-01-25 07:32:00,
2013-01-24 21:37:00,66.4,60.8,29.97,ENE,76,1.0,-999.0,82,0.00,,,0.00,PyWeather,2013-01-25 07:37:00,
2013-01-24 21:42:00,66.2,60.6,29.97,ENE,76,1.0,-999.0,82,0.00,,,0.00,PyWeather,2013-01-25 07:42:00,
2013-01-24 21:43:00,66.4,60.8,29.97,ENE,76,3.0,-999.0,82,0.00,,,0.00,PyWeather,2013-01-25 07:43:00,
2013-01-24 21:45:00,66.4,60.8,29.97,ENE,76,2.0,-999.0,82,0.00,,,0.00,PyWeather,2013-01-25 07:45:00,
2013-01-24 21:46:00,66.4,60.8,29.97,ENE,77,2.0,-999.0,82,0.00,,,0.00,PyWeather,2013-01-25 07:46:00,
2013-01-24 21:47:00,66.3,60.7,29.97,ENE,76,2.0,-999.0,82,0.00,,,0.00,PyWeather,2013-01-25 07:47:00,
2013-01-24 21:49:00,66.5,60.9,29.97,ENE,76,2.0,-999.0,82,0.00,,,0.00,PyWeather,2013-01-25 07:49:00,
2013-01-24 21:50:00,66.5,60.9,29.97,ENE,76,2.0,-999.0,82,0.00,,,0.00,PyWeather,2013-01-25 07:50:00,
2013-01-24 21:51:00,66.5,60.9,29.97,ENE,76,2.0,-999.0,82,0.00,,,0.00,PyWeather,2013-01-25 07:51:00,
2013-01-24 21:52:00,66.4,60.8,29.97,ENE,76,2.0,-999.0,82,0.00,,,0.00,PyWeather,2013-01-25 07:52:00,
2013-01-24 21:53:00,66.5,60.9,29.97,ENE,76,2.0,-999.0,82,0.00,,,0.00,PyWeather,2013-01-25 07:53:00,
2013-01-24 21:54:00,66.5,60.9,29.97,ENE,77,2.0,-999.0,82,0.00,,,0.00,PyWeather,2013-01-25 07:54:00,
2013-01-24 21:55:00,66.5,60.6,29.97,ENE,76,2.0,-999.0,81,0.00,,,0.00,PyWeather,2013-01-25 07:55:00,
2013-01-24 21:56:00,66.4,60.5,29.97,ENE,77,2.0,-999.0,81,0.00,,,0.00,PyWeather,2013-01-25 07:56:00,
2013-01-24 21:57:00,66.4,60.8,29.97,ENE,77,3.0,-999.0,82,0.00,,,0.00,PyWeather,2013-01-25 07:57:00,
2013-01-24 21:58:00,66.2,60.3,29.97,ENE,76,3.0,-999.0,81,0.00,,,0.00,PyWeather,2013-01-25 07:58:00,
2013-01-24 21:59:00,66.2,60.3,29.97,ENE,76,3.0,-999.0,81,0.00,,,0.00,PyWeather,2013-01-25 07:59:00,
2013-01-24 22:00:00,66.2,60.3,29.97,ENE,76,3.0,-999.0,81,0.00,,,0.00,PyWeather,2013-01-25 08:00:00,
2013-01-24 22:01:00,66.1,60.2,29.97,ENE,77,3.0,-999.0,81,0.00,,,0.00,PyWeather,2013-01-25 08:01:00,
2013-01-24 22:02:00,66.4,60.8,29.97,ENE,76,2.0,-999.0,82,0.00,,,0.00,PyWeather,2013-01-25 08:02:00,
2013-01-24 22:03:00,66.1,60.5,29.98,ENE,77,3.0,-999.0,82,0.00,,,0.00,PyWeather,2013-01-25 08:03:00,
2013-01-24 22:06:00,66.3,60.7,29.98,ENE,77,4.0,-999.0,82,0.00,,,0.00,PyWeather,2013-01-25 08:06:00,
2013-01-24 22:07:00,66.3,60.7,29.97,ENE,77,4.0,-999.0,82,0.00,,,0.00,PyWeather,2013-01-25 08:07:00,
2013-01-24 22:08:00,66.5,60.6,29.97,ENE,77,2.0,-999.0,81,0.00,,,0.00,PyWeather,2013-01-25 08:08:00,
2013-01-24 22:09:00,66.4,60.8,29.97,ENE,78,3.0,-999.0,82,0.00,,,0.00,PyWeather,2013-01-25 08:09:00,
2013-01-24 22:10:00,66.4,60.8,29.98,ENE,77,3.0,-999.0,82,0.00,,,0.00,PyWeather,2013-01-25 08:10:00,
2013-01-24 22:11:00,66.5,60.9,29.97,ENE,76,3.0,-999.0,82,0.00,,,0.00,PyWeather,2013-01-25 08:11:00,
2013-01-24 22:13:00,66.5,60.9,29.97,ENE,78,2.0,-999.0,82,0.00,,,0.00,PyWeather,2013-01-25 08:13:00,
2013-01-24 22:14:00,66.1,60.2,29.97,ENE,77,3.0,-999.0,81,0.00,,,0.00,PyWeather,2013-01-25 08:14:00,
2013-01-24 22:16:00,66.6,60.6,29.97,ENE,77,1.0,-999.0,81,0.00,,,0.00,PyWeather,2013-01-25 08:16:00,
2013-01-24 22:19:00,66.2,60.6,29.98,ENE,77,4.0,-999.0,82,0.00,,,0.00,PyWeather,2013-01-25 08:19:00,
2013-01-24 22:24:00,66.4,60.8,29.97,ENE,77,3.0,-999.0,82,0.00,,,0.00,PyWeather,2013-01-25 08:24:00,
2013-01-24 22:29:00,66.6,60.6,29.97,ENE,77,1.0,-999.0,81,0.00,,,0.00,PyWeather,2013-01-25 08:29:00,
2013-01-24 22:34:00,66.5,60.6,29.97,ENE,77,2.0,-999.0,81,0.00,,,0.00,PyWeather,2013-01-25 08:34:00,
2013-01-24 22:39:00,66.3,60.4,29.97,ENE,76,2.0,-999.0,81,0.00,,,0.00,PyWeather,2013-01-25 08:39:00,
2013-01-24 22:44:00,66.0,60.1,29.97,ENE,77,3.0,-999.0,81,0.00,,,0.00,PyWeather,2013-01-25 08:44:00,
2013-01-24 22:46:00,65.4,59.1,29.97,ENE,77,3.0,-999.0,80,0.00,,,0.00,PyWeather,2013-01-25 08:46:00,
2013-01-24 22:48:00,65.4,59.1,29.97,ENE,78,3.0,-999.0,80,0.00,,,0.00,PyWeather,2013-01-25 08:48:00,
2013-01-24 22:50:00,65.8,59.5,29.97,ENE,78,3.0,-999.0,80,0.00,,,0.00,PyWeather,2013-01-25 08:50:00,
2013-01-24 22:51:00,65.2,58.9,29.97,ENE,77,3.0,-999.0,80,0.00,,,0.00,PyWeather,2013-01-25 08:51:00,
2013-01-24 22:53:00,65.2,58.9,29.97,ENE,78,4.0,-999.0,80,0.00,,,0.00,PyWeather,2013-01-25 08:53:00,
2013-01-24 22:54:00,65.1,58.8,29.97,ENE,77,4.0,-999.0,80,0.00,,,0.00,PyWeather,2013-01-25 08:54:00,
2013-01-24 22:55:00,65.6,59.7,29.97,ENE,78,3.0,-999.0,81,0.00,,,0.00,PyWeather,2013-01-25 08:55:00,
2013-01-24 22:56:00,65.1,58.8,29.97,ENE,77,4.0,-999.0,80,0.00,,,0.00,PyWeather,2013-01-25 08:56:00,
2013-01-24 22:57:00,65.0,58.7,29.98,ENE,78,4.0,-999.0,80,0.00,,,0.00,PyWeather,2013-01-25 08:57:00,
2013-01-24 22:58:00,65.0,58.7,29.97,ENE,78,4.0,-999.0,80,0.00,,,0.00,PyWeather,2013-01-25 08:58:00,
2013-01-24 22:59:00,65.0,58.7,29.97,East,79,4.0,-999.0,80,0.00,,,0.00,PyWeather,2013-01-25 08:59:00,
2013-01-24 23:00:00,65.4,59.1,29.97,ENE,78,3.0,-999.0,80,0.00,,,0.00,PyWeather,2013-01-25 09:00:00,
2013-01-24 23:01:00,64.9,58.7,29.98,ENE,78,4.0,-999.0,80,0.00,,,0.00,PyWeather,2013-01-25 09:01:00,
2013-01-24 23:02:00,64.9,58.7,29.97,ENE,78,4.0,-999.0,80,0.00,,,0.00,PyWeather,2013-01-25 09:02:00,
2013-01-24 23:03:00,64.8,58.6,29.97,ENE,78,4.0,-999.0,80,0.00,,,0.00,PyWeather,2013-01-25 09:03:00,
2013-01-24 23:04:00,64.8,58.6,29.97,East,79,4.0,-999.0,80,0.00,,,0.00,PyWeather,2013-01-25 09:04:00,
2013-01-24 23:05:00,65.2,58.9,29.97,ENE,77,3.0,-999.0,80,0.00,,,0.00,PyWeather,2013-01-25 09:05:00,
2013-01-24 23:10:00,65.0,58.7,29.97,ENE,78,4.0,-999.0,80,0.00,,,0.00,PyWeather,2013-01-25 09:10:00,
2013-01-24 23:15:00,64.9,58.7,29.97,ENE,77,4.0,-999.0,80,0.00,,,0.00,PyWeather,2013-01-25 09:15:00,
2013-01-24 23:21:00,64.8,58.6,29.98,ENE,78,4.0,-999.0,80,0.00,,,0.00,PyWeather,2013-01-25 09:21:00,
2013-01-24 23:26:00,64.8,58.6,29.97,ENE,78,3.0,-999.0,80,0.00,,,0.00,PyWeather,2013-01-25 09:26:00,
2013-01-24 23:31:00,64.7,58.8,29.97,ENE,78,4.0,-999.0,81,0.00,,,0.00,PyWeather,2013-01-25 09:31:00,
2013-01-24 23:36:00,64.5,58.6,29.97,East,79,4.0,-999.0,81,0.00,,,0.00,PyWeather,2013-01-25 09:36:00,
2013-01-24 23:41:00,64.4,58.5,29.97,ENE,78,4.0,-999.0,81,0.00,,,0.00,PyWeather,2013-01-25 09:41:00,
2013-01-24 23:46:00,64.3,58.4,29.97,ENE,77,4.0,-999.0,81,0.00,,,0.00,PyWeather,2013-01-25 09:46:00,
2013-01-24 23:52:00,64.1,58.2,29.97,ENE,77,4.0,-999.0,81,0.00,,,0.00,PyWeather,2013-01-25 09:52:00,
2013-01-24 23:57:00,64.1,58.5,29.97,ENE,78,4.0,-999.0,82,0.00,,,0.00,PyWeather,2013-01-25 09:57:00,
2013-01-24 23:59:00,63.8,58.2,29.96,ENE,78,3.0,-999.0,82,0.00,,,0.00,PyWeather,2013-01-25 09:59:00,